<?xml version="1.0" encoding="UTF-8" standalone="no" ?>
<gpx xmlns="http://www.topografix.com/GPX/1/1" xmlns:xsi="http://www.w3.org/2001/XMLSchema-instance" xsi:schemaLocation="http://www.topografix.com/GPX/1/1 http://www.topografix.com/GPX/1/1/gpx.xsd" version="1.1" creator="VisuGPX - https://www.visugpx.com">
  <metadata>
    <name>Saint Véran, ND de Clausis, Col Agnel</name>
    <desc><![CDATA[Saint Véran, ND de Clausis, Col de Chamoussiere, Col Agnel = grosse journée.]]></desc>
  </metadata>
  <trk>
    <name><![CDATA[Saint Véran, ND de Clausis, Col Agnel_1]]></name>
    <trkseg>
      <trkpt lat="44.72223" lon="6.84693">
        <ele>1738</ele>
        <time>2017-09-27T15:05:46Z</time>
      </trkpt>
      <trkpt lat="44.72217" lon="6.84804">
        <ele>1747</ele>
        <time>2017-09-27T12:38:57Z</time>
      </trkpt>
      <trkpt lat="44.72217" lon="6.84804">
        <ele>1747</ele>
        <time>2017-09-27T12:38:57Z</time>
      </trkpt>
      <trkpt lat="44.72213" lon="6.84818">
        <ele>1750</ele>
        <time>2017-09-27T12:39:12Z</time>
      </trkpt>
      <trkpt lat="44.7221" lon="6.84823">
        <ele>1751</ele>
        <time>2017-09-27T12:39:17Z</time>
      </trkpt>
      <trkpt lat="44.72194" lon="6.84843">
        <ele>1754</ele>
        <time>2017-09-27T12:39:34Z</time>
      </trkpt>
      <trkpt lat="44.72191" lon="6.84849">
        <ele>1756</ele>
        <time>2017-09-27T12:39:38Z</time>
      </trkpt>
      <trkpt lat="44.72172" lon="6.84871">
        <ele>1760</ele>
        <time>2017-09-27T12:39:57Z</time>
      </trkpt>
      <trkpt lat="44.72137" lon="6.84902">
        <ele>1766</ele>
        <time>2017-09-27T12:40:29Z</time>
      </trkpt>
      <trkpt lat="44.72127" lon="6.84908">
        <ele>1766</ele>
        <time>2017-09-27T12:40:39Z</time>
      </trkpt>
      <trkpt lat="44.72113" lon="6.84914">
        <ele>1766</ele>
        <time>2017-09-27T12:40:51Z</time>
      </trkpt>
      <trkpt lat="44.72108" lon="6.84917">
        <ele>1766</ele>
        <time>2017-09-27T12:40:55Z</time>
      </trkpt>
      <trkpt lat="44.72103" lon="6.84921">
        <ele>1767</ele>
        <time>2017-09-27T12:40:59Z</time>
      </trkpt>
      <trkpt lat="44.72096" lon="6.84929">
        <ele>1768</ele>
        <time>2017-09-27T12:41:07Z</time>
      </trkpt>
      <trkpt lat="44.72079" lon="6.84947">
        <ele>1767</ele>
        <time>2017-09-27T12:41:24Z</time>
      </trkpt>
      <trkpt lat="44.72066" lon="6.84956">
        <ele>1769</ele>
        <time>2017-09-27T12:41:37Z</time>
      </trkpt>
      <trkpt lat="44.72061" lon="6.8496">
        <ele>1769</ele>
        <time>2017-09-27T12:41:41Z</time>
      </trkpt>
      <trkpt lat="44.72042" lon="6.84974">
        <ele>1772</ele>
        <time>2017-09-27T12:41:59Z</time>
      </trkpt>
      <trkpt lat="44.72034" lon="6.84978">
        <ele>1773</ele>
        <time>2017-09-27T12:42:07Z</time>
      </trkpt>
      <trkpt lat="44.72015" lon="6.84992">
        <ele>1778</ele>
        <time>2017-09-27T12:42:30Z</time>
      </trkpt>
      <trkpt lat="44.72005" lon="6.84995">
        <ele>1779</ele>
        <time>2017-09-27T12:42:39Z</time>
      </trkpt>
      <trkpt lat="44.71981" lon="6.84993">
        <ele>1784</ele>
        <time>2017-09-27T12:43:03Z</time>
      </trkpt>
      <trkpt lat="44.71971" lon="6.84996">
        <ele>1784</ele>
        <time>2017-09-27T12:43:13Z</time>
      </trkpt>
      <trkpt lat="44.71944" lon="6.8501">
        <ele>1791</ele>
        <time>2017-09-27T12:43:42Z</time>
      </trkpt>
      <trkpt lat="44.71934" lon="6.85017">
        <ele>1794</ele>
        <time>2017-09-27T12:44:14Z</time>
      </trkpt>
      <trkpt lat="44.71925" lon="6.85022">
        <ele>1797</ele>
        <time>2017-09-27T12:44:25Z</time>
      </trkpt>
      <trkpt lat="44.7192" lon="6.85025">
        <ele>1793</ele>
        <time>2017-09-27T12:45:33Z</time>
      </trkpt>
      <trkpt lat="44.71915" lon="6.85026">
        <ele>1793</ele>
        <time>2017-09-27T12:45:40Z</time>
      </trkpt>
      <trkpt lat="44.71914" lon="6.85034">
        <ele>1794</ele>
        <time>2017-09-27T12:45:45Z</time>
      </trkpt>
      <trkpt lat="44.71885" lon="6.85061">
        <ele>1801</ele>
        <time>2017-09-27T12:46:18Z</time>
      </trkpt>
      <trkpt lat="44.71869" lon="6.85075">
        <ele>1806</ele>
        <time>2017-09-27T12:46:36Z</time>
      </trkpt>
      <trkpt lat="44.71865" lon="6.85081">
        <ele>1807</ele>
        <time>2017-09-27T12:46:42Z</time>
      </trkpt>
      <trkpt lat="44.71863" lon="6.85088">
        <ele>1808</ele>
        <time>2017-09-27T12:46:48Z</time>
      </trkpt>
      <trkpt lat="44.71862" lon="6.85094">
        <ele>1809</ele>
        <time>2017-09-27T12:46:54Z</time>
      </trkpt>
      <trkpt lat="44.71865" lon="6.85115">
        <ele>1811</ele>
        <time>2017-09-27T12:47:10Z</time>
      </trkpt>
      <trkpt lat="44.71864" lon="6.85129">
        <ele>1813</ele>
        <time>2017-09-27T12:47:21Z</time>
      </trkpt>
      <trkpt lat="44.71864" lon="6.85135">
        <ele>1815</ele>
        <time>2017-09-27T12:47:26Z</time>
      </trkpt>
      <trkpt lat="44.71858" lon="6.85154">
        <ele>1817</ele>
        <time>2017-09-27T12:47:42Z</time>
      </trkpt>
      <trkpt lat="44.7185" lon="6.85179">
        <ele>1824</ele>
        <time>2017-09-27T12:48:03Z</time>
      </trkpt>
      <trkpt lat="44.71846" lon="6.85183">
        <ele>1826</ele>
        <time>2017-09-27T12:48:09Z</time>
      </trkpt>
      <trkpt lat="44.71846" lon="6.85191">
        <ele>1828</ele>
        <time>2017-09-27T12:48:41Z</time>
      </trkpt>
      <trkpt lat="44.71839" lon="6.85209">
        <ele>1833</ele>
        <time>2017-09-27T12:48:56Z</time>
      </trkpt>
      <trkpt lat="44.71837" lon="6.85215">
        <ele>1834</ele>
        <time>2017-09-27T12:49:00Z</time>
      </trkpt>
      <trkpt lat="44.71835" lon="6.85229">
        <ele>1834</ele>
        <time>2017-09-27T12:49:10Z</time>
      </trkpt>
      <trkpt lat="44.71834" lon="6.85236">
        <ele>1835</ele>
        <time>2017-09-27T12:49:15Z</time>
      </trkpt>
      <trkpt lat="44.71827" lon="6.85271">
        <ele>1840</ele>
        <time>2017-09-27T12:49:53Z</time>
      </trkpt>
      <trkpt lat="44.71827" lon="6.85278">
        <ele>1841</ele>
        <time>2017-09-27T12:50:01Z</time>
      </trkpt>
      <trkpt lat="44.71824" lon="6.85284">
        <ele>1841</ele>
        <time>2017-09-27T12:50:06Z</time>
      </trkpt>
      <trkpt lat="44.71823" lon="6.8529">
        <ele>1842</ele>
        <time>2017-09-27T12:50:13Z</time>
      </trkpt>
      <trkpt lat="44.71822" lon="6.85297">
        <ele>1844</ele>
        <time>2017-09-27T12:50:18Z</time>
      </trkpt>
      <trkpt lat="44.71829" lon="6.85315">
        <ele>1846</ele>
        <time>2017-09-27T12:50:34Z</time>
      </trkpt>
      <trkpt lat="44.71837" lon="6.85324">
        <ele>1847</ele>
        <time>2017-09-27T12:50:44Z</time>
      </trkpt>
      <trkpt lat="44.71841" lon="6.85336">
        <ele>1849</ele>
        <time>2017-09-27T12:50:56Z</time>
      </trkpt>
      <trkpt lat="44.71845" lon="6.8534">
        <ele>1850</ele>
        <time>2017-09-27T12:51:02Z</time>
      </trkpt>
      <trkpt lat="44.71849" lon="6.8534">
        <ele>1852</ele>
        <time>2017-09-27T12:51:09Z</time>
      </trkpt>
      <trkpt lat="44.71852" lon="6.85346">
        <ele>1853</ele>
        <time>2017-09-27T12:51:17Z</time>
      </trkpt>
      <trkpt lat="44.71854" lon="6.85352">
        <ele>1854</ele>
        <time>2017-09-27T12:51:23Z</time>
      </trkpt>
      <trkpt lat="44.71857" lon="6.85358">
        <ele>1855</ele>
        <time>2017-09-27T12:51:28Z</time>
      </trkpt>
      <trkpt lat="44.71861" lon="6.85362">
        <ele>1855</ele>
        <time>2017-09-27T12:51:36Z</time>
      </trkpt>
      <trkpt lat="44.71864" lon="6.85367">
        <ele>1855</ele>
        <time>2017-09-27T12:51:41Z</time>
      </trkpt>
      <trkpt lat="44.7187" lon="6.85378">
        <ele>1856</ele>
        <time>2017-09-27T12:51:49Z</time>
      </trkpt>
      <trkpt lat="44.71872" lon="6.85384">
        <ele>1855</ele>
        <time>2017-09-27T12:51:53Z</time>
      </trkpt>
      <trkpt lat="44.71877" lon="6.85389">
        <ele>1855</ele>
        <time>2017-09-27T12:51:58Z</time>
      </trkpt>
      <trkpt lat="44.71899" lon="6.85427">
        <ele>1860</ele>
        <time>2017-09-27T12:52:29Z</time>
      </trkpt>
      <trkpt lat="44.71909" lon="6.85454">
        <ele>1864</ele>
        <time>2017-09-27T12:52:50Z</time>
      </trkpt>
      <trkpt lat="44.71917" lon="6.85464">
        <ele>1866</ele>
        <time>2017-09-27T12:53:00Z</time>
      </trkpt>
      <trkpt lat="44.7192" lon="6.8547">
        <ele>1866</ele>
        <time>2017-09-27T12:53:05Z</time>
      </trkpt>
      <trkpt lat="44.71928" lon="6.8549">
        <ele>1870</ele>
        <time>2017-09-27T12:53:21Z</time>
      </trkpt>
      <trkpt lat="44.71936" lon="6.85497">
        <ele>1872</ele>
        <time>2017-09-27T12:53:29Z</time>
      </trkpt>
      <trkpt lat="44.7194" lon="6.85503">
        <ele>1873</ele>
        <time>2017-09-27T12:53:34Z</time>
      </trkpt>
      <trkpt lat="44.71941" lon="6.8551">
        <ele>1874</ele>
        <time>2017-09-27T12:53:38Z</time>
      </trkpt>
      <trkpt lat="44.71944" lon="6.85515">
        <ele>1874</ele>
        <time>2017-09-27T12:53:42Z</time>
      </trkpt>
      <trkpt lat="44.7195" lon="6.85527">
        <ele>1874</ele>
        <time>2017-09-27T12:53:51Z</time>
      </trkpt>
      <trkpt lat="44.71954" lon="6.85533">
        <ele>1875</ele>
        <time>2017-09-27T12:53:55Z</time>
      </trkpt>
      <trkpt lat="44.7196" lon="6.85544">
        <ele>1877</ele>
        <time>2017-09-27T12:54:03Z</time>
      </trkpt>
      <trkpt lat="44.71964" lon="6.85548">
        <ele>1878</ele>
        <time>2017-09-27T12:54:06Z</time>
      </trkpt>
      <trkpt lat="44.71971" lon="6.85557">
        <ele>1878</ele>
        <time>2017-09-27T12:54:14Z</time>
      </trkpt>
      <trkpt lat="44.71978" lon="6.85567">
        <ele>1879</ele>
        <time>2017-09-27T12:54:22Z</time>
      </trkpt>
      <trkpt lat="44.71988" lon="6.85571">
        <ele>1879</ele>
        <time>2017-09-27T12:54:30Z</time>
      </trkpt>
      <trkpt lat="44.72019" lon="6.85569">
        <ele>1879</ele>
        <time>2017-09-27T12:54:53Z</time>
      </trkpt>
      <trkpt lat="44.72048" lon="6.85587">
        <ele>1881</ele>
        <time>2017-09-27T12:55:17Z</time>
      </trkpt>
      <trkpt lat="44.72057" lon="6.85593">
        <ele>1882</ele>
        <time>2017-09-27T12:55:24Z</time>
      </trkpt>
      <trkpt lat="44.72072" lon="6.8561">
        <ele>1885</ele>
        <time>2017-09-27T12:55:39Z</time>
      </trkpt>
      <trkpt lat="44.72082" lon="6.85615">
        <ele>1886</ele>
        <time>2017-09-27T12:55:46Z</time>
      </trkpt>
      <trkpt lat="44.72086" lon="6.85616">
        <ele>1885</ele>
        <time>2017-09-27T12:55:53Z</time>
      </trkpt>
      <trkpt lat="44.72097" lon="6.85622">
        <ele>1885</ele>
        <time>2017-09-27T12:56:17Z</time>
      </trkpt>
      <trkpt lat="44.72113" lon="6.85639">
        <ele>1886</ele>
        <time>2017-09-27T12:56:31Z</time>
      </trkpt>
      <trkpt lat="44.72115" lon="6.85645">
        <ele>1886</ele>
        <time>2017-09-27T12:56:37Z</time>
      </trkpt>
      <trkpt lat="44.72114" lon="6.85659">
        <ele>1885</ele>
        <time>2017-09-27T12:57:57Z</time>
      </trkpt>
      <trkpt lat="44.72119" lon="6.85661">
        <ele>1886</ele>
        <time>2017-09-27T12:58:02Z</time>
      </trkpt>
      <trkpt lat="44.72121" lon="6.85668">
        <ele>1886</ele>
        <time>2017-09-27T12:58:05Z</time>
      </trkpt>
      <trkpt lat="44.72125" lon="6.85673">
        <ele>1886</ele>
        <time>2017-09-27T12:58:09Z</time>
      </trkpt>
      <trkpt lat="44.72137" lon="6.85682">
        <ele>1886</ele>
        <time>2017-09-27T12:58:19Z</time>
      </trkpt>
      <trkpt lat="44.72142" lon="6.85684">
        <ele>1887</ele>
        <time>2017-09-27T12:58:22Z</time>
      </trkpt>
      <trkpt lat="44.72151" lon="6.85692">
        <ele>1887</ele>
        <time>2017-09-27T12:58:29Z</time>
      </trkpt>
      <trkpt lat="44.72155" lon="6.85694">
        <ele>1887</ele>
        <time>2017-09-27T12:58:32Z</time>
      </trkpt>
      <trkpt lat="44.72163" lon="6.85702">
        <ele>1885</ele>
        <time>2017-09-27T12:58:44Z</time>
      </trkpt>
      <trkpt lat="44.72167" lon="6.85705">
        <ele>1885</ele>
        <time>2017-09-27T12:58:47Z</time>
      </trkpt>
      <trkpt lat="44.72176" lon="6.85713">
        <ele>1886</ele>
        <time>2017-09-27T12:58:54Z</time>
      </trkpt>
      <trkpt lat="44.7218" lon="6.85719">
        <ele>1886</ele>
        <time>2017-09-27T12:58:58Z</time>
      </trkpt>
      <trkpt lat="44.72186" lon="6.85727">
        <ele>1886</ele>
        <time>2017-09-27T12:59:29Z</time>
      </trkpt>
      <trkpt lat="44.7219" lon="6.85729">
        <ele>1886</ele>
        <time>2017-09-27T12:59:33Z</time>
      </trkpt>
      <trkpt lat="44.72195" lon="6.85731">
        <ele>1886</ele>
        <time>2017-09-27T12:59:37Z</time>
      </trkpt>
      <trkpt lat="44.722" lon="6.85732">
        <ele>1886</ele>
        <time>2017-09-27T12:59:41Z</time>
      </trkpt>
      <trkpt lat="44.72216" lon="6.85739">
        <ele>1885</ele>
        <time>2017-09-27T12:59:52Z</time>
      </trkpt>
      <trkpt lat="44.72221" lon="6.85741">
        <ele>1886</ele>
        <time>2017-09-27T12:59:55Z</time>
      </trkpt>
      <trkpt lat="44.72227" lon="6.85744">
        <ele>1885</ele>
        <time>2017-09-27T12:59:59Z</time>
      </trkpt>
      <trkpt lat="44.7224" lon="6.85759">
        <ele>1885</ele>
        <time>2017-09-27T13:00:11Z</time>
      </trkpt>
      <trkpt lat="44.72246" lon="6.8577">
        <ele>1885</ele>
        <time>2017-09-27T13:00:19Z</time>
      </trkpt>
      <trkpt lat="44.72251" lon="6.8578">
        <ele>1886</ele>
        <time>2017-09-27T13:00:37Z</time>
      </trkpt>
      <trkpt lat="44.72255" lon="6.85794">
        <ele>1887</ele>
        <time>2017-09-27T13:00:45Z</time>
      </trkpt>
      <trkpt lat="44.72259" lon="6.85815">
        <ele>1887</ele>
        <time>2017-09-27T13:00:57Z</time>
      </trkpt>
      <trkpt lat="44.7226" lon="6.85825">
        <ele>1886</ele>
        <time>2017-09-27T13:01:16Z</time>
      </trkpt>
      <trkpt lat="44.72263" lon="6.85838">
        <ele>1886</ele>
        <time>2017-09-27T13:01:24Z</time>
      </trkpt>
      <trkpt lat="44.72264" lon="6.85852">
        <ele>1887</ele>
        <time>2017-09-27T13:01:32Z</time>
      </trkpt>
      <trkpt lat="44.72269" lon="6.85866">
        <ele>1888</ele>
        <time>2017-09-27T13:01:40Z</time>
      </trkpt>
      <trkpt lat="44.7227" lon="6.85873">
        <ele>1888</ele>
        <time>2017-09-27T13:01:45Z</time>
      </trkpt>
      <trkpt lat="44.72272" lon="6.8588">
        <ele>1888</ele>
        <time>2017-09-27T13:01:49Z</time>
      </trkpt>
      <trkpt lat="44.72274" lon="6.85887">
        <ele>1888</ele>
        <time>2017-09-27T13:01:53Z</time>
      </trkpt>
      <trkpt lat="44.72276" lon="6.85893">
        <ele>1888</ele>
        <time>2017-09-27T13:01:57Z</time>
      </trkpt>
      <trkpt lat="44.72284" lon="6.85902">
        <ele>1887</ele>
        <time>2017-09-27T13:02:18Z</time>
      </trkpt>
      <trkpt lat="44.72294" lon="6.85906">
        <ele>1886</ele>
        <time>2017-09-27T13:02:27Z</time>
      </trkpt>
      <trkpt lat="44.72299" lon="6.8591">
        <ele>1886</ele>
        <time>2017-09-27T13:02:33Z</time>
      </trkpt>
      <trkpt lat="44.72302" lon="6.85915">
        <ele>1886</ele>
        <time>2017-09-27T13:02:37Z</time>
      </trkpt>
      <trkpt lat="44.72306" lon="6.85926">
        <ele>1886</ele>
        <time>2017-09-27T13:02:45Z</time>
      </trkpt>
      <trkpt lat="44.7231" lon="6.85936">
        <ele>1886</ele>
        <time>2017-09-27T13:03:16Z</time>
      </trkpt>
      <trkpt lat="44.72318" lon="6.85948">
        <ele>1885</ele>
        <time>2017-09-27T13:03:23Z</time>
      </trkpt>
      <trkpt lat="44.72326" lon="6.85957">
        <ele>1885</ele>
        <time>2017-09-27T13:03:31Z</time>
      </trkpt>
      <trkpt lat="44.72331" lon="6.85969">
        <ele>1886</ele>
        <time>2017-09-27T13:03:37Z</time>
      </trkpt>
      <trkpt lat="44.72334" lon="6.85975">
        <ele>1886</ele>
        <time>2017-09-27T13:03:40Z</time>
      </trkpt>
      <trkpt lat="44.72335" lon="6.85983">
        <ele>1885</ele>
        <time>2017-09-27T13:03:44Z</time>
      </trkpt>
      <trkpt lat="44.72339" lon="6.85996">
        <ele>1885</ele>
        <time>2017-09-27T13:03:53Z</time>
      </trkpt>
      <trkpt lat="44.72341" lon="6.86003">
        <ele>1886</ele>
        <time>2017-09-27T13:03:56Z</time>
      </trkpt>
      <trkpt lat="44.72341" lon="6.8601">
        <ele>1886</ele>
        <time>2017-09-27T13:04:00Z</time>
      </trkpt>
      <trkpt lat="44.72343" lon="6.86018">
        <ele>1886</ele>
        <time>2017-09-27T13:04:04Z</time>
      </trkpt>
      <trkpt lat="44.72342" lon="6.86025">
        <ele>1886</ele>
        <time>2017-09-27T13:04:09Z</time>
      </trkpt>
      <trkpt lat="44.72343" lon="6.86032">
        <ele>1886</ele>
        <time>2017-09-27T13:04:13Z</time>
      </trkpt>
      <trkpt lat="44.7235" lon="6.86042">
        <ele>1886</ele>
        <time>2017-09-27T13:04:19Z</time>
      </trkpt>
      <trkpt lat="44.72352" lon="6.86048">
        <ele>1886</ele>
        <time>2017-09-27T13:04:23Z</time>
      </trkpt>
      <trkpt lat="44.72359" lon="6.86055">
        <ele>1889</ele>
        <time>2017-09-27T13:05:00Z</time>
      </trkpt>
      <trkpt lat="44.72361" lon="6.86061">
        <ele>1889</ele>
        <time>2017-09-27T13:05:05Z</time>
      </trkpt>
      <trkpt lat="44.72372" lon="6.8607">
        <ele>1888</ele>
        <time>2017-09-27T13:05:27Z</time>
      </trkpt>
      <trkpt lat="44.72391" lon="6.86099">
        <ele>1892.9</ele>
        <time>2017-09-06T13:25:09Z</time>
      </trkpt>
      <trkpt lat="44.72407" lon="6.86136">
        <ele>1893.2</ele>
        <time>2017-09-06T13:24:59Z</time>
      </trkpt>
      <trkpt lat="44.72403" lon="6.86176">
        <ele>1893.9</ele>
        <time>2017-09-06T13:24:49Z</time>
      </trkpt>
      <trkpt lat="44.72381" lon="6.86196">
        <ele>1896.4</ele>
        <time>2017-09-06T13:24:43Z</time>
      </trkpt>
      <trkpt lat="44.7237" lon="6.86217">
        <ele>1897</ele>
        <time>2017-09-06T13:24:38Z</time>
      </trkpt>
      <trkpt lat="44.72368" lon="6.86256">
        <ele>1898</ele>
        <time>2017-09-06T13:24:31Z</time>
      </trkpt>
      <trkpt lat="44.72334" lon="6.86399">
        <ele>1903.9</ele>
        <time>2017-09-06T13:24:26Z</time>
      </trkpt>
      <trkpt lat="44.72343" lon="6.86436">
        <ele>1906.6</ele>
        <time>2017-09-06T13:23:59Z</time>
      </trkpt>
      <trkpt lat="44.7234" lon="6.86464">
        <ele>1908.1</ele>
        <time>2017-09-06T13:23:29Z</time>
      </trkpt>
      <trkpt lat="44.7238" lon="6.86601">
        <ele>1908.4</ele>
        <time>2017-09-06T13:23:25Z</time>
      </trkpt>
      <trkpt lat="44.72389" lon="6.86724">
        <ele>1908.2</ele>
        <time>2017-09-06T13:23:03Z</time>
      </trkpt>
      <trkpt lat="44.72396" lon="6.86738">
        <ele>1906.8</ele>
        <time>2017-09-06T13:22:58Z</time>
      </trkpt>
      <trkpt lat="44.72372" lon="6.86792">
        <ele>1912.6</ele>
        <time>2017-09-06T13:22:54Z</time>
      </trkpt>
      <trkpt lat="44.72372" lon="6.86886">
        <ele>1913.5</ele>
        <time>2017-09-06T13:22:46Z</time>
      </trkpt>
      <trkpt lat="44.72364" lon="6.86935">
        <ele>1913.7</ele>
        <time>2017-09-06T13:22:42Z</time>
      </trkpt>
      <trkpt lat="44.72343" lon="6.86993">
        <ele>1914.3</ele>
        <time>2017-09-06T13:22:39Z</time>
      </trkpt>
      <trkpt lat="44.72325" lon="6.87049">
        <ele>1927.4</ele>
        <time>2017-09-06T13:22:36Z</time>
      </trkpt>
      <trkpt lat="44.72326" lon="6.87089">
        <ele>1921.2</ele>
        <time>2017-09-06T13:22:33Z</time>
      </trkpt>
      <trkpt lat="44.72307" lon="6.8715">
        <ele>1928.8</ele>
        <time>2017-09-06T13:22:29Z</time>
      </trkpt>
      <trkpt lat="44.72314" lon="6.87237">
        <ele>1928.7</ele>
        <time>2017-09-06T13:22:26Z</time>
      </trkpt>
      <trkpt lat="44.72279" lon="6.87319">
        <ele>1936.6</ele>
        <time>2017-09-06T13:22:23Z</time>
      </trkpt>
      <trkpt lat="44.72277" lon="6.87361">
        <ele>1936.7</ele>
        <time>2017-09-06T13:22:19Z</time>
      </trkpt>
      <trkpt lat="44.72268" lon="6.87398">
        <ele>1938</ele>
        <time>2017-09-06T13:22:09Z</time>
      </trkpt>
      <trkpt lat="44.7227" lon="6.87487">
        <ele>1940.1</ele>
        <time>2017-09-06T13:22:06Z</time>
      </trkpt>
      <trkpt lat="44.72319" lon="6.87612">
        <ele>1941</ele>
        <time>2017-09-06T13:22:03Z</time>
      </trkpt>
      <trkpt lat="44.72318" lon="6.87641">
        <ele>1941.5</ele>
        <time>2017-09-06T13:21:34Z</time>
      </trkpt>
      <trkpt lat="44.72302" lon="6.87689">
        <ele>1943.9</ele>
        <time>2017-09-06T13:21:26Z</time>
      </trkpt>
      <trkpt lat="44.72304" lon="6.87715">
        <ele>1943.9</ele>
        <time>2017-09-06T13:21:22Z</time>
      </trkpt>
      <trkpt lat="44.72271" lon="6.87848">
        <ele>1946.2</ele>
        <time>2017-09-06T13:21:19Z</time>
      </trkpt>
      <trkpt lat="44.72216" lon="6.8799">
        <ele>1959.7</ele>
        <time>2017-09-06T13:21:15Z</time>
      </trkpt>
      <trkpt lat="44.72218" lon="6.88057">
        <ele>1959.9</ele>
        <time>2017-09-06T13:20:57Z</time>
      </trkpt>
      <trkpt lat="44.72197" lon="6.881">
        <ele>1963.2</ele>
        <time>2017-09-06T13:20:52Z</time>
      </trkpt>
      <trkpt lat="44.7218" lon="6.88244">
        <ele>1968.1</ele>
        <time>2017-09-06T13:20:48Z</time>
      </trkpt>
      <trkpt lat="44.72153" lon="6.88236">
        <ele>1979.1</ele>
        <time>2017-09-06T13:20:43Z</time>
      </trkpt>
      <trkpt lat="44.72155" lon="6.8826">
        <ele>1978.6</ele>
        <time>2017-09-06T13:20:38Z</time>
      </trkpt>
      <trkpt lat="44.72168" lon="6.88301">
        <ele>1970.2</ele>
        <time>2017-09-06T13:20:33Z</time>
      </trkpt>
      <trkpt lat="44.72168" lon="6.88336">
        <ele>1974.4</ele>
        <time>2017-09-06T13:20:29Z</time>
      </trkpt>
      <trkpt lat="44.72126" lon="6.88464">
        <ele>1988.4</ele>
        <time>2017-09-06T13:20:14Z</time>
      </trkpt>
      <trkpt lat="44.72116" lon="6.88578">
        <ele>1990.1</ele>
        <time>2017-09-06T13:20:04Z</time>
      </trkpt>
      <trkpt lat="44.72061" lon="6.88704">
        <ele>2000.9</ele>
        <time>2017-09-06T13:19:57Z</time>
      </trkpt>
      <trkpt lat="44.72039" lon="6.88739">
        <ele>2004.4</ele>
        <time>2017-09-06T13:19:53Z</time>
      </trkpt>
      <trkpt lat="44.72027" lon="6.88857">
        <ele>2003.1</ele>
        <time>2017-09-06T13:19:49Z</time>
      </trkpt>
      <trkpt lat="44.72023" lon="6.8895">
        <ele>2002.3</ele>
        <time>2017-09-06T13:19:44Z</time>
      </trkpt>
      <trkpt lat="44.71979" lon="6.89051">
        <ele>2014.1</ele>
        <time>2017-09-06T13:19:40Z</time>
      </trkpt>
      <trkpt lat="44.71973" lon="6.89113">
        <ele>2011.9</ele>
        <time>2017-09-06T13:19:36Z</time>
      </trkpt>
      <trkpt lat="44.7196" lon="6.89173">
        <ele>2012.3</ele>
        <time>2017-09-06T13:19:26Z</time>
      </trkpt>
      <trkpt lat="44.71965" lon="6.89285">
        <ele>2012.7</ele>
        <time>2017-09-06T13:19:18Z</time>
      </trkpt>
      <trkpt lat="44.7196" lon="6.89348">
        <ele>2014.7</ele>
        <time>2017-09-06T13:18:44Z</time>
      </trkpt>
      <trkpt lat="44.71964" lon="6.89391">
        <ele>2014.5</ele>
        <time>2017-09-06T13:18:34Z</time>
      </trkpt>
      <trkpt lat="44.71952" lon="6.89506">
        <ele>2011.1</ele>
        <time>2017-09-06T13:18:26Z</time>
      </trkpt>
      <trkpt lat="44.71928" lon="6.89558">
        <ele>2009.2</ele>
        <time>2017-09-06T13:18:16Z</time>
      </trkpt>
      <trkpt lat="44.71873" lon="6.89649">
        <ele>2021.7</ele>
        <time>2017-09-06T13:18:06Z</time>
      </trkpt>
      <trkpt lat="44.71857" lon="6.89705">
        <ele>2021.8</ele>
        <time>2017-09-06T13:17:57Z</time>
      </trkpt>
      <trkpt lat="44.7185" lon="6.89765">
        <ele>2022.4</ele>
        <time>2017-09-06T13:17:48Z</time>
      </trkpt>
      <trkpt lat="44.71862" lon="6.89818">
        <ele>2018.5</ele>
        <time>2017-09-06T13:17:11Z</time>
      </trkpt>
      <trkpt lat="44.71843" lon="6.89975">
        <ele>2019.2</ele>
        <time>2017-09-06T13:16:53Z</time>
      </trkpt>
      <trkpt lat="44.71872" lon="6.90066">
        <ele>2021.2</ele>
        <time>2017-09-06T13:16:44Z</time>
      </trkpt>
      <trkpt lat="44.71878" lon="6.90127">
        <ele>2024.1</ele>
        <time>2017-09-06T13:16:30Z</time>
      </trkpt>
      <trkpt lat="44.71876" lon="6.902">
        <ele>2026.6</ele>
        <time>2017-09-06T13:16:23Z</time>
      </trkpt>
      <trkpt lat="44.71887" lon="6.90336">
        <ele>2025.7</ele>
        <time>2017-09-06T13:16:16Z</time>
      </trkpt>
      <trkpt lat="44.71884" lon="6.90361">
        <ele>2026.3</ele>
        <time>2017-09-06T13:16:12Z</time>
      </trkpt>
      <trkpt lat="44.71861" lon="6.90407">
        <ele>2027.7</ele>
        <time>2017-09-06T13:16:08Z</time>
      </trkpt>
      <trkpt lat="44.718" lon="6.90491">
        <ele>2034.3</ele>
        <time>2017-09-06T13:16:04Z</time>
      </trkpt>
      <trkpt lat="44.71755" lon="6.90578">
        <ele>2033</ele>
        <time>2017-09-06T13:15:56Z</time>
      </trkpt>
      <trkpt lat="44.7175" lon="6.90588">
        <ele>2034.7</ele>
        <time>2017-09-06T13:15:36Z</time>
      </trkpt>
      <trkpt lat="44.71716" lon="6.90605">
        <ele>2042.8</ele>
        <time>2017-09-06T13:15:24Z</time>
      </trkpt>
      <trkpt lat="44.71672" lon="6.90687">
        <ele>2047.9</ele>
        <time>2017-09-06T13:15:01Z</time>
      </trkpt>
      <trkpt lat="44.71667" lon="6.90743">
        <ele>2050.1</ele>
        <time>2017-09-06T13:14:57Z</time>
      </trkpt>
      <trkpt lat="44.7165" lon="6.90781">
        <ele>2061.3</ele>
        <time>2017-09-06T13:14:53Z</time>
      </trkpt>
      <trkpt lat="44.7159" lon="6.90883">
        <ele>2066.8</ele>
        <time>2017-09-06T13:14:49Z</time>
      </trkpt>
      <trkpt lat="44.71585" lon="6.90932">
        <ele>2068.8</ele>
        <time>2017-09-06T13:14:46Z</time>
      </trkpt>
      <trkpt lat="44.71557" lon="6.90992">
        <ele>2079.8</ele>
        <time>2017-09-06T13:14:41Z</time>
      </trkpt>
      <trkpt lat="44.71456" lon="6.91273">
        <ele>2102.4</ele>
        <time>2017-09-06T13:14:37Z</time>
      </trkpt>
      <trkpt lat="44.71454" lon="6.91303">
        <ele>2102.8</ele>
        <time>2017-09-06T13:13:38Z</time>
      </trkpt>
      <trkpt lat="44.71377" lon="6.91446">
        <ele>2110.7</ele>
        <time>2017-09-06T13:13:30Z</time>
      </trkpt>
      <trkpt lat="44.71363" lon="6.91507">
        <ele>2104</ele>
        <time>2017-09-06T13:12:58Z</time>
      </trkpt>
      <trkpt lat="44.71252" lon="6.91689">
        <ele>2093.7</ele>
        <time>2017-09-06T13:12:53Z</time>
      </trkpt>
      <trkpt lat="44.71136" lon="6.91838">
        <ele>2098.6</ele>
        <time>2017-09-06T13:12:24Z</time>
      </trkpt>
      <trkpt lat="44.71056" lon="6.92046">
        <ele>2101.5</ele>
        <time>2017-09-06T13:12:19Z</time>
      </trkpt>
      <trkpt lat="44.7107" lon="6.92093">
        <ele>2099.8</ele>
        <time>2017-09-06T13:12:12Z</time>
      </trkpt>
      <trkpt lat="44.71113" lon="6.92155">
        <ele>2104</ele>
        <time>2017-09-06T13:12:00Z</time>
      </trkpt>
      <trkpt lat="44.71043" lon="6.92256">
        <ele>2120.7</ele>
        <time>2017-09-06T13:08:38Z</time>
      </trkpt>
      <trkpt lat="44.70929" lon="6.92296">
        <ele>2124.7</ele>
        <time>2017-09-06T13:08:09Z</time>
      </trkpt>
      <trkpt lat="44.70869" lon="6.92355">
        <ele>2137.1</ele>
        <time>2017-09-06T13:08:02Z</time>
      </trkpt>
      <trkpt lat="44.70821" lon="6.92441">
        <ele>2147.5</ele>
        <time>2017-09-06T13:07:56Z</time>
      </trkpt>
      <trkpt lat="44.70716" lon="6.92679">
        <ele>2165.7</ele>
        <time>2017-09-06T13:06:27Z</time>
      </trkpt>
      <trkpt lat="44.70695" lon="6.92792">
        <ele>2170.9</ele>
        <time>2017-09-06T13:06:24Z</time>
      </trkpt>
      <trkpt lat="44.7069" lon="6.92861">
        <ele>2178.1</ele>
        <time>2017-09-06T13:06:15Z</time>
      </trkpt>
      <trkpt lat="44.70701" lon="6.92869">
        <ele>2180.8</ele>
        <time>2017-09-06T13:06:07Z</time>
      </trkpt>
      <trkpt lat="44.70774" lon="6.92727">
        <ele>2187.3</ele>
        <time>2017-09-06T13:05:22Z</time>
      </trkpt>
      <trkpt lat="44.70846" lon="6.92639">
        <ele>2197.7</ele>
        <time>2017-09-06T13:05:10Z</time>
      </trkpt>
      <trkpt lat="44.70853" lon="6.92615">
        <ele>2194.8</ele>
        <time>2017-09-06T13:05:06Z</time>
      </trkpt>
      <trkpt lat="44.70899" lon="6.92599">
        <ele>2198</ele>
        <time>2017-09-06T13:05:02Z</time>
      </trkpt>
      <trkpt lat="44.70914" lon="6.92614">
        <ele>2199.7</ele>
        <time>2017-09-06T13:03:21Z</time>
      </trkpt>
      <trkpt lat="44.70881" lon="6.92648">
        <ele>2201.2</ele>
        <time>2017-09-06T13:03:17Z</time>
      </trkpt>
      <trkpt lat="44.70864" lon="6.92799">
        <ele>2223.1</ele>
        <time>2017-09-06T13:03:01Z</time>
      </trkpt>
      <trkpt lat="44.70871" lon="6.92882">
        <ele>2236</ele>
        <time>2017-09-06T13:02:58Z</time>
      </trkpt>
      <trkpt lat="44.70724" lon="6.93259">
        <ele>2244.6</ele>
        <time>2017-09-27T14:16:14Z</time>
      </trkpt>
      <trkpt lat="44.70546" lon="6.93429">
        <ele>2248.6</ele>
        <time>2017-09-27T14:16:46Z</time>
      </trkpt>
      <trkpt lat="44.70369" lon="6.93648">
        <ele>2238.9</ele>
        <time>2017-09-27T14:16:57Z</time>
      </trkpt>
      <trkpt lat="44.70179" lon="6.93961">
        <ele>2265.1</ele>
        <time>2017-09-27T14:17:01Z</time>
      </trkpt>
      <trkpt lat="44.70107" lon="6.93997">
        <ele>2246.3</ele>
        <time>2017-09-27T14:17:05Z</time>
      </trkpt>
      <trkpt lat="44.70045" lon="6.94116">
        <ele>2257</ele>
        <time>2017-09-27T14:17:15Z</time>
      </trkpt>
      <trkpt lat="44.69963" lon="6.94361">
        <ele>2266.9</ele>
        <time>2017-09-27T14:17:22Z</time>
      </trkpt>
      <trkpt lat="44.69952" lon="6.94384">
        <ele>2266.7</ele>
        <time>2017-09-27T14:17:32Z</time>
      </trkpt>
      <trkpt lat="44.69928" lon="6.94518">
        <ele>2279.1</ele>
        <time>2017-09-27T14:17:36Z</time>
      </trkpt>
      <trkpt lat="44.69928" lon="6.94572">
        <ele>2282.7</ele>
        <time>2017-09-27T14:17:42Z</time>
      </trkpt>
      <trkpt lat="44.6984" lon="6.94622">
        <ele>2283.5</ele>
        <time>2017-09-27T14:17:59Z</time>
      </trkpt>
      <trkpt lat="44.69762" lon="6.94778">
        <ele>2313</ele>
        <time>2017-09-27T14:18:13Z</time>
      </trkpt>
      <trkpt lat="44.69694" lon="6.94766">
        <ele>2302.7</ele>
        <time>2017-09-27T14:18:25Z</time>
      </trkpt>
      <trkpt lat="44.6963" lon="6.94896">
        <ele>2316</ele>
        <time>2017-09-27T14:18:35Z</time>
      </trkpt>
      <trkpt lat="44.69599" lon="6.94919">
        <ele>2318.8</ele>
        <time>2017-09-27T14:18:40Z</time>
      </trkpt>
      <trkpt lat="44.69584" lon="6.95054">
        <ele>2331</ele>
        <time>2017-09-27T14:18:45Z</time>
      </trkpt>
      <trkpt lat="44.69587" lon="6.95174">
        <ele>2341.5</ele>
        <time>2017-09-27T14:18:52Z</time>
      </trkpt>
      <trkpt lat="44.69609" lon="6.95186">
        <ele>2351</ele>
        <time>2017-09-27T14:18:59Z</time>
      </trkpt>
      <trkpt lat="44.69644" lon="6.95148">
        <ele>2349.2</ele>
        <time>2017-09-27T14:19:02Z</time>
      </trkpt>
      <trkpt lat="44.69681" lon="6.95059">
        <ele>2356.4</ele>
        <time>2017-09-27T14:19:08Z</time>
      </trkpt>
      <trkpt lat="44.6967" lon="6.95188">
        <ele>2378</ele>
        <time>2017-09-27T14:19:12Z</time>
      </trkpt>
      <trkpt lat="44.69638" lon="6.95304">
        <ele>2376.4</ele>
        <time>2017-09-27T14:19:17Z</time>
      </trkpt>
      <trkpt lat="44.69608" lon="6.9532">
        <ele>2371.3</ele>
        <time>2017-09-27T14:19:22Z</time>
      </trkpt>
      <trkpt lat="44.69588" lon="6.9555">
        <ele>2414.5</ele>
        <time>2017-09-27T14:19:52Z</time>
      </trkpt>
      <trkpt lat="44.69555" lon="6.9564">
        <ele>2418.6</ele>
        <time>2017-09-27T14:20:05Z</time>
      </trkpt>
      <trkpt lat="44.69464" lon="6.95733">
        <ele>2422.7</ele>
        <time>2017-09-27T14:20:10Z</time>
      </trkpt>
      <trkpt lat="44.6944" lon="6.95802">
        <ele>2432.6</ele>
        <time>2017-09-27T14:20:42Z</time>
      </trkpt>
      <trkpt lat="44.69449" lon="6.95887">
        <ele>2443.7</ele>
        <time>2017-09-27T14:20:54Z</time>
      </trkpt>
      <trkpt lat="44.69435" lon="6.96015">
        <ele>2463.4</ele>
        <time>2017-09-27T14:20:58Z</time>
      </trkpt>
      <trkpt lat="44.69343" lon="6.96165">
        <ele>2474.5</ele>
        <time>2017-09-27T14:21:10Z</time>
      </trkpt>
      <trkpt lat="44.6929" lon="6.96453">
        <ele>2524.4</ele>
        <time>2017-09-27T14:21:14Z</time>
      </trkpt>
      <trkpt lat="44.69245" lon="6.96597">
        <ele>2527.9</ele>
        <time>2017-09-27T14:21:18Z</time>
      </trkpt>
      <trkpt lat="44.69235" lon="6.9673">
        <ele>2538.3</ele>
        <time>2017-09-27T14:21:22Z</time>
      </trkpt>
      <trkpt lat="44.69219" lon="6.96794">
        <ele>2540.5</ele>
        <time>2017-09-27T14:22:11Z</time>
      </trkpt>
      <trkpt lat="44.69233" lon="6.96873">
        <ele>2546</ele>
        <time>2017-09-27T14:22:14Z</time>
      </trkpt>
      <trkpt lat="44.69198" lon="6.96959">
        <ele>2551.6</ele>
        <time>2017-09-27T14:22:18Z</time>
      </trkpt>
      <trkpt lat="44.69188" lon="6.97054">
        <ele>2558</ele>
        <time>2017-09-27T14:22:47Z</time>
      </trkpt>
      <trkpt lat="44.69135" lon="6.97144">
        <ele>2574.2</ele>
        <time>2017-09-27T14:22:51Z</time>
      </trkpt>
      <trkpt lat="44.69023" lon="6.9732">
        <ele>2581.8</ele>
        <time>2017-09-27T14:22:55Z</time>
      </trkpt>
      <trkpt lat="44.68952" lon="6.9734">
        <ele>2590.7</ele>
        <time>2017-09-27T14:23:31Z</time>
      </trkpt>
      <trkpt lat="44.68905" lon="6.97395">
        <ele>2603.1</ele>
        <time>2017-09-27T14:23:34Z</time>
      </trkpt>
      <trkpt lat="44.688" lon="6.97457">
        <ele>2614.2</ele>
        <time>2017-09-27T14:23:37Z</time>
      </trkpt>
      <trkpt lat="44.68692" lon="6.97489">
        <ele>2614.7</ele>
        <time>2017-09-27T14:23:42Z</time>
      </trkpt>
      <trkpt lat="44.68574" lon="6.97522">
        <ele>2629.6</ele>
        <time>2017-09-27T14:24:03Z</time>
      </trkpt>
      <trkpt lat="44.68496" lon="6.97435">
        <ele>2630.4</ele>
        <time>2017-09-27T14:24:27Z</time>
      </trkpt>
      <trkpt lat="44.68423" lon="6.97332">
        <ele>2638</ele>
        <time>2017-09-27T14:24:49Z</time>
      </trkpt>
      <trkpt lat="44.68351" lon="6.97299">
        <ele>2648.3</ele>
        <time>2017-09-27T14:24:53Z</time>
      </trkpt>
      <trkpt lat="44.68339" lon="6.97264">
        <ele>2645.5</ele>
        <time>2017-09-27T14:24:56Z</time>
      </trkpt>
      <trkpt lat="44.68299" lon="6.97298">
        <ele>2675.5</ele>
        <time>2017-09-27T14:25:06Z</time>
      </trkpt>
      <trkpt lat="44.68289" lon="6.97264">
        <ele>2677.2</ele>
        <time>2017-09-27T14:25:28Z</time>
      </trkpt>
      <trkpt lat="44.68189" lon="6.97167">
        <ele>2706.6</ele>
        <time>2017-09-27T14:25:43Z</time>
      </trkpt>
      <trkpt lat="44.6814" lon="6.96991">
        <ele>2725.3</ele>
        <time>2017-09-27T14:25:54Z</time>
      </trkpt>
      <trkpt lat="44.68095" lon="6.96604">
        <ele>2754.2</ele>
        <time>2017-09-27T14:26:03Z</time>
      </trkpt>
      <trkpt lat="44.68102" lon="6.96453">
        <ele>2771.3</ele>
        <time>2017-09-27T14:26:18Z</time>
      </trkpt>
      <trkpt lat="44.68159" lon="6.96241">
        <ele>2844.7</ele>
        <time>2017-09-27T14:26:21Z</time>
      </trkpt>
      <trkpt lat="44.68141" lon="6.96239">
        <ele>2845.4</ele>
        <time>2017-09-27T14:26:24Z</time>
      </trkpt>
      <trkpt lat="44.68161" lon="6.96169">
        <ele>2835.6</ele>
        <time>2017-09-27T14:26:35Z</time>
      </trkpt>
      <trkpt lat="44.68142" lon="6.9617">
        <ele>2841.8</ele>
        <time>2017-09-27T14:26:49Z</time>
      </trkpt>
      <trkpt lat="44.68133" lon="6.96091">
        <ele>2857.8</ele>
        <time>2017-09-27T14:26:53Z</time>
      </trkpt>
      <trkpt lat="44.6815" lon="6.96">
        <ele>2872.7</ele>
        <time>2017-09-27T14:26:56Z</time>
      </trkpt>
      <trkpt lat="44.68153" lon="6.95922">
        <ele>2881.5</ele>
        <time>2017-09-27T14:27:02Z</time>
      </trkpt>
      <trkpt lat="44.68129" lon="6.95764">
        <ele>2869.2</ele>
        <time>2017-09-27T14:27:12Z</time>
      </trkpt>
      <trkpt lat="44.68098" lon="6.95711">
        <ele>2851.6</ele>
        <time>2017-09-27T14:27:17Z</time>
      </trkpt>
      <trkpt lat="44.6811" lon="6.95446">
        <ele>2830.2</ele>
        <time>2017-09-27T14:27:25Z</time>
      </trkpt>
      <trkpt lat="44.68105" lon="6.95361">
        <ele>2821.9</ele>
        <time>2017-09-27T14:27:37Z</time>
      </trkpt>
      <trkpt lat="44.68073" lon="6.95322">
        <ele>2781.1</ele>
        <time>2017-09-27T14:27:40Z</time>
      </trkpt>
      <trkpt lat="44.68096" lon="6.95204">
        <ele>2761.1</ele>
        <time>2017-09-27T14:28:14Z</time>
      </trkpt>
      <trkpt lat="44.68028" lon="6.95017">
        <ele>2736.7</ele>
        <time>2017-09-27T14:28:21Z</time>
      </trkpt>
      <trkpt lat="44.68021" lon="6.94981">
        <ele>2727</ele>
        <time>2017-09-27T14:28:30Z</time>
      </trkpt>
      <trkpt lat="44.6803" lon="6.94945">
        <ele>2715.6</ele>
        <time>2017-09-27T14:29:14Z</time>
      </trkpt>
      <trkpt lat="44.6802" lon="6.9481">
        <ele>2699.6</ele>
        <time>2017-09-27T14:29:17Z</time>
      </trkpt>
      <trkpt lat="44.68022" lon="6.94713">
        <ele>2689.9</ele>
        <time>2017-09-27T14:29:54Z</time>
      </trkpt>
      <trkpt lat="44.68001" lon="6.94646">
        <ele>2681.9</ele>
        <time>2017-09-27T14:29:57Z</time>
      </trkpt>
      <trkpt lat="44.68009" lon="6.94626">
        <ele>2680.7</ele>
        <time>2017-09-27T14:30:00Z</time>
      </trkpt>
      <trkpt lat="44.67978" lon="6.94541">
        <ele>2667.7</ele>
        <time>2017-09-27T14:30:07Z</time>
      </trkpt>
      <trkpt lat="44.67977" lon="6.94493">
        <ele>2661.5</ele>
        <time>2017-09-27T14:30:14Z</time>
      </trkpt>
      <trkpt lat="44.67964" lon="6.94492">
        <ele>2659.6</ele>
        <time>2017-09-27T14:30:23Z</time>
      </trkpt>
      <trkpt lat="44.67944" lon="6.94454">
        <ele>2652</ele>
        <time>2017-09-27T14:30:40Z</time>
      </trkpt>
      <trkpt lat="44.67962" lon="6.94317">
        <ele>2635.4</ele>
        <time>2017-09-27T14:31:19Z</time>
      </trkpt>
      <trkpt lat="44.68036" lon="6.94183">
        <ele>2611.4</ele>
        <time>2017-09-27T14:31:44Z</time>
      </trkpt>
      <trkpt lat="44.68027" lon="6.94128">
        <ele>2606.5</ele>
        <time>2017-09-27T14:32:16Z</time>
      </trkpt>
      <trkpt lat="44.67991" lon="6.94027">
        <ele>2601.4</ele>
        <time>2017-09-27T14:32:42Z</time>
      </trkpt>
      <trkpt lat="44.67927" lon="6.93981">
        <ele>2594.9</ele>
        <time>2017-09-27T14:32:45Z</time>
      </trkpt>
      <trkpt lat="44.67866" lon="6.93957">
        <ele>2583.8</ele>
        <time>2017-09-27T14:32:48Z</time>
      </trkpt>
      <trkpt lat="44.67869" lon="6.93918">
        <ele>2579.6</ele>
        <time>2017-09-27T14:33:12Z</time>
      </trkpt>
      <trkpt lat="44.67862" lon="6.93839">
        <ele>2555</ele>
        <time>2017-09-27T14:33:28Z</time>
      </trkpt>
      <trkpt lat="44.67861" lon="6.93763">
        <ele>2550.7</ele>
        <time>2017-09-27T14:33:46Z</time>
      </trkpt>
      <trkpt lat="44.67846" lon="6.93723">
        <ele>2547.3</ele>
        <time>2017-09-27T14:33:50Z</time>
      </trkpt>
      <trkpt lat="44.67831" lon="6.93608">
        <ele>2531.2</ele>
        <time>2017-09-27T14:33:54Z</time>
      </trkpt>
      <trkpt lat="44.67807" lon="6.936">
        <ele>2528.9</ele>
        <time>2017-09-27T14:34:25Z</time>
      </trkpt>
      <trkpt lat="44.67769" lon="6.936">
        <ele>2522.1</ele>
        <time>2017-09-27T14:34:40Z</time>
      </trkpt>
      <trkpt lat="44.67784" lon="6.9357">
        <ele>2518.3</ele>
        <time>2017-09-27T14:34:44Z</time>
      </trkpt>
      <trkpt lat="44.67773" lon="6.93525">
        <ele>2514.8</ele>
        <time>2017-09-27T14:34:48Z</time>
      </trkpt>
      <trkpt lat="44.67785" lon="6.93471">
        <ele>2508</ele>
        <time>2017-09-27T14:34:54Z</time>
      </trkpt>
      <trkpt lat="44.67724" lon="6.93358">
        <ele>2498.1</ele>
        <time>2017-09-27T14:34:58Z</time>
      </trkpt>
      <trkpt lat="44.67713" lon="6.93291">
        <ele>2491.7</ele>
        <time>2017-09-27T14:35:02Z</time>
      </trkpt>
      <trkpt lat="44.67689" lon="6.93278">
        <ele>2489.2</ele>
        <time>2017-09-27T14:35:10Z</time>
      </trkpt>
      <trkpt lat="44.67653" lon="6.93288">
        <ele>2481.9</ele>
        <time>2017-09-27T14:35:18Z</time>
      </trkpt>
      <trkpt lat="44.67647" lon="6.93285">
        <ele>2481.2</ele>
        <time>2017-09-27T14:35:36Z</time>
      </trkpt>
      <trkpt lat="44.67647" lon="6.93278">
        <ele>2476</ele>
        <time>2017-09-27T14:35:43Z</time>
      </trkpt>
      <trkpt lat="44.67655" lon="6.93272">
        <ele>2473</ele>
        <time>2017-09-27T14:35:51Z</time>
      </trkpt>
      <trkpt lat="44.67661" lon="6.93262">
        <ele>2471</ele>
        <time>2017-09-27T14:36:00Z</time>
      </trkpt>
      <trkpt lat="44.67663" lon="6.93255">
        <ele>2470</ele>
        <time>2017-09-27T14:36:13Z</time>
      </trkpt>
      <trkpt lat="44.67663" lon="6.93248">
        <ele>2469</ele>
        <time>2017-09-27T14:36:17Z</time>
      </trkpt>
      <trkpt lat="44.67667" lon="6.93244">
        <ele>2469</ele>
        <time>2017-09-27T14:36:20Z</time>
      </trkpt>
      <trkpt lat="44.6767" lon="6.9324">
        <ele>2469</ele>
        <time>2017-09-27T14:36:35Z</time>
      </trkpt>
      <trkpt lat="44.6768" lon="6.93207">
        <ele>2461</ele>
        <time>2017-09-27T14:36:45Z</time>
      </trkpt>
      <trkpt lat="44.67686" lon="6.93205">
        <ele>2458</ele>
        <time>2017-09-27T14:36:59Z</time>
      </trkpt>
      <trkpt lat="44.67689" lon="6.93199">
        <ele>2458</ele>
        <time>2017-09-27T14:37:03Z</time>
      </trkpt>
      <trkpt lat="44.67696" lon="6.93175">
        <ele>2452</ele>
        <time>2017-09-27T14:37:07Z</time>
      </trkpt>
      <trkpt lat="44.67696" lon="6.93168">
        <ele>2452</ele>
        <time>2017-09-27T14:37:30Z</time>
      </trkpt>
      <trkpt lat="44.67697" lon="6.93161">
        <ele>2452</ele>
        <time>2017-09-27T14:37:37Z</time>
      </trkpt>
      <trkpt lat="44.67703" lon="6.93149">
        <ele>2451</ele>
        <time>2017-09-27T14:37:41Z</time>
      </trkpt>
      <trkpt lat="44.67706" lon="6.93141">
        <ele>2450</ele>
        <time>2017-09-27T14:37:57Z</time>
      </trkpt>
      <trkpt lat="44.67707" lon="6.93135">
        <ele>2450</ele>
        <time>2017-09-27T14:38:16Z</time>
      </trkpt>
      <trkpt lat="44.67706" lon="6.93128">
        <ele>2450</ele>
        <time>2017-09-27T14:38:26Z</time>
      </trkpt>
      <trkpt lat="44.67705" lon="6.93122">
        <ele>2450</ele>
        <time>2017-09-27T14:38:35Z</time>
      </trkpt>
      <trkpt lat="44.67706" lon="6.93114">
        <ele>2449</ele>
        <time>2017-09-27T14:38:40Z</time>
      </trkpt>
      <trkpt lat="44.67708" lon="6.93107">
        <ele>2449</ele>
        <time>2017-09-27T14:39:12Z</time>
      </trkpt>
      <trkpt lat="44.67709" lon="6.93101">
        <ele>2449</ele>
        <time>2017-09-27T14:39:23Z</time>
      </trkpt>
      <trkpt lat="44.67708" lon="6.93094">
        <ele>2450</ele>
        <time>2017-09-27T14:39:26Z</time>
      </trkpt>
      <trkpt lat="44.677" lon="6.93076">
        <ele>2448</ele>
        <time>2017-09-27T14:39:56Z</time>
      </trkpt>
      <trkpt lat="44.67698" lon="6.9307">
        <ele>2448</ele>
        <time>2017-09-27T14:40:16Z</time>
      </trkpt>
      <trkpt lat="44.67698" lon="6.93063">
        <ele>2448</ele>
        <time>2017-09-27T14:46:02Z</time>
      </trkpt>
      <trkpt lat="44.677" lon="6.93052">
        <ele>2447</ele>
        <time>2017-09-27T14:46:08Z</time>
      </trkpt>
      <trkpt lat="44.67695" lon="6.93041">
        <ele>2446</ele>
        <time>2017-09-27T14:46:11Z</time>
      </trkpt>
      <trkpt lat="44.67691" lon="6.93037">
        <ele>2446</ele>
        <time>2017-09-27T14:46:15Z</time>
      </trkpt>
      <trkpt lat="44.67688" lon="6.93033">
        <ele>2446</ele>
        <time>2017-09-27T14:46:19Z</time>
      </trkpt>
      <trkpt lat="44.67684" lon="6.93028">
        <ele>2445</ele>
        <time>2017-09-27T14:46:23Z</time>
      </trkpt>
      <trkpt lat="44.6768" lon="6.9302">
        <ele>2443</ele>
        <time>2017-09-27T14:46:32Z</time>
      </trkpt>
      <trkpt lat="44.67677" lon="6.93014">
        <ele>2443</ele>
        <time>2017-09-27T14:46:49Z</time>
      </trkpt>
      <trkpt lat="44.67673" lon="6.9301">
        <ele>2443</ele>
        <time>2017-09-27T14:46:58Z</time>
      </trkpt>
      <trkpt lat="44.6767" lon="6.93004">
        <ele>2443</ele>
        <time>2017-09-27T14:47:02Z</time>
      </trkpt>
      <trkpt lat="44.67669" lon="6.92998">
        <ele>2442</ele>
        <time>2017-09-27T14:47:06Z</time>
      </trkpt>
      <trkpt lat="44.67669" lon="6.92991">
        <ele>2440</ele>
        <time>2017-09-27T14:47:09Z</time>
      </trkpt>
      <trkpt lat="44.67667" lon="6.92984">
        <ele>2439</ele>
        <time>2017-09-27T14:47:13Z</time>
      </trkpt>
      <trkpt lat="44.67656" lon="6.92968">
        <ele>2435</ele>
        <time>2017-09-27T14:47:20Z</time>
      </trkpt>
      <trkpt lat="44.67654" lon="6.92954">
        <ele>2434</ele>
        <time>2017-09-27T14:47:28Z</time>
      </trkpt>
      <trkpt lat="44.67654" lon="6.92947">
        <ele>2433</ele>
        <time>2017-09-27T14:47:36Z</time>
      </trkpt>
      <trkpt lat="44.67657" lon="6.92941">
        <ele>2432</ele>
        <time>2017-09-27T14:47:43Z</time>
      </trkpt>
      <trkpt lat="44.67658" lon="6.92934">
        <ele>2432</ele>
        <time>2017-09-27T14:47:50Z</time>
      </trkpt>
      <trkpt lat="44.67655" lon="6.92928">
        <ele>2431</ele>
        <time>2017-09-27T14:48:23Z</time>
      </trkpt>
      <trkpt lat="44.67652" lon="6.92921">
        <ele>2431</ele>
        <time>2017-09-27T14:48:27Z</time>
      </trkpt>
      <trkpt lat="44.6765" lon="6.92915">
        <ele>2430</ele>
        <time>2017-09-27T14:49:12Z</time>
      </trkpt>
      <trkpt lat="44.67649" lon="6.92899">
        <ele>2429</ele>
        <time>2017-09-27T14:49:32Z</time>
      </trkpt>
      <trkpt lat="44.67646" lon="6.92887">
        <ele>2428</ele>
        <time>2017-09-27T14:49:47Z</time>
      </trkpt>
      <trkpt lat="44.67619" lon="6.92848">
        <ele>2421</ele>
        <time>2017-09-27T14:49:56Z</time>
      </trkpt>
      <trkpt lat="44.67614" lon="6.92836">
        <ele>2419</ele>
        <time>2017-09-27T14:50:04Z</time>
      </trkpt>
      <trkpt lat="44.67608" lon="6.92827">
        <ele>2417</ele>
        <time>2017-09-27T14:50:07Z</time>
      </trkpt>
      <trkpt lat="44.67604" lon="6.92814">
        <ele>2414</ele>
        <time>2017-09-27T14:50:21Z</time>
      </trkpt>
      <trkpt lat="44.67602" lon="6.92801">
        <ele>2410</ele>
        <time>2017-09-27T14:50:29Z</time>
      </trkpt>
      <trkpt lat="44.67601" lon="6.92788">
        <ele>2409</ele>
        <time>2017-09-27T14:50:41Z</time>
      </trkpt>
      <trkpt lat="44.67602" lon="6.92774">
        <ele>2406</ele>
        <time>2017-09-27T14:50:45Z</time>
      </trkpt>
      <trkpt lat="44.67592" lon="6.92722">
        <ele>2399</ele>
        <time>2017-09-27T14:50:49Z</time>
      </trkpt>
      <trkpt lat="44.67593" lon="6.92695">
        <ele>2396</ele>
        <time>2017-09-27T14:50:52Z</time>
      </trkpt>
      <trkpt lat="44.67588" lon="6.92683">
        <ele>2396</ele>
        <time>2017-09-27T14:50:55Z</time>
      </trkpt>
      <trkpt lat="44.67582" lon="6.92657">
        <ele>2394</ele>
        <time>2017-09-27T14:51:01Z</time>
      </trkpt>
      <trkpt lat="44.6758" lon="6.92644">
        <ele>2393</ele>
        <time>2017-09-27T14:51:04Z</time>
      </trkpt>
      <trkpt lat="44.67583" lon="6.92632">
        <ele>2393</ele>
        <time>2017-09-27T14:51:07Z</time>
      </trkpt>
      <trkpt lat="44.67585" lon="6.92624">
        <ele>2392</ele>
        <time>2017-09-27T14:51:17Z</time>
      </trkpt>
      <trkpt lat="44.67586" lon="6.92617">
        <ele>2391</ele>
        <time>2017-09-27T14:51:20Z</time>
      </trkpt>
      <trkpt lat="44.67589" lon="6.9261">
        <ele>2390</ele>
        <time>2017-09-27T14:51:28Z</time>
      </trkpt>
      <trkpt lat="44.67589" lon="6.92596">
        <ele>2388</ele>
        <time>2017-09-27T14:51:40Z</time>
      </trkpt>
      <trkpt lat="44.67598" lon="6.92561">
        <ele>2384</ele>
        <time>2017-09-27T14:51:58Z</time>
      </trkpt>
      <trkpt lat="44.676" lon="6.92538">
        <ele>2383</ele>
        <time>2017-09-27T14:52:04Z</time>
      </trkpt>
      <trkpt lat="44.67601" lon="6.92523">
        <ele>2381</ele>
        <time>2017-09-27T14:52:11Z</time>
      </trkpt>
      <trkpt lat="44.67599" lon="6.92516">
        <ele>2380</ele>
        <time>2017-09-27T14:52:17Z</time>
      </trkpt>
      <trkpt lat="44.67597" lon="6.92509">
        <ele>2380</ele>
        <time>2017-09-27T14:52:20Z</time>
      </trkpt>
      <trkpt lat="44.67599" lon="6.92502">
        <ele>2379</ele>
        <time>2017-09-27T14:52:39Z</time>
      </trkpt>
      <trkpt lat="44.67602" lon="6.92498">
        <ele>2379</ele>
        <time>2017-09-27T14:53:05Z</time>
      </trkpt>
      <trkpt lat="44.67604" lon="6.92492">
        <ele>2379</ele>
        <time>2017-09-27T14:53:08Z</time>
      </trkpt>
      <trkpt lat="44.67606" lon="6.92485">
        <ele>2379</ele>
        <time>2017-09-27T14:53:14Z</time>
      </trkpt>
      <trkpt lat="44.67606" lon="6.92472">
        <ele>2379</ele>
        <time>2017-09-27T14:53:23Z</time>
      </trkpt>
      <trkpt lat="44.67605" lon="6.92452">
        <ele>2378</ele>
        <time>2017-09-27T14:53:34Z</time>
      </trkpt>
      <trkpt lat="44.67607" lon="6.92436">
        <ele>2376</ele>
        <time>2017-09-27T14:53:42Z</time>
      </trkpt>
      <trkpt lat="44.67608" lon="6.92429">
        <ele>2375</ele>
        <time>2017-09-27T14:53:50Z</time>
      </trkpt>
      <trkpt lat="44.67614" lon="6.92423">
        <ele>2374</ele>
        <time>2017-09-27T14:54:01Z</time>
      </trkpt>
      <trkpt lat="44.6761" lon="6.92418">
        <ele>2374</ele>
        <time>2017-09-27T14:54:05Z</time>
      </trkpt>
      <trkpt lat="44.676" lon="6.92414">
        <ele>2373</ele>
        <time>2017-09-27T14:54:09Z</time>
      </trkpt>
      <trkpt lat="44.67589" lon="6.92414">
        <ele>2371</ele>
        <time>2017-09-27T14:54:20Z</time>
      </trkpt>
      <trkpt lat="44.67575" lon="6.92407">
        <ele>2363.9</ele>
        <time>2017-09-27T14:54:46Z</time>
      </trkpt>
      <trkpt lat="44.6757" lon="6.92375">
        <ele>2360</ele>
        <time>2017-09-27T14:55:02Z</time>
      </trkpt>
      <trkpt lat="44.67569" lon="6.92321">
        <ele>2352</ele>
        <time>2017-09-27T14:55:15Z</time>
      </trkpt>
      <trkpt lat="44.6756" lon="6.92317">
        <ele>2351</ele>
        <time>2017-09-27T14:55:19Z</time>
      </trkpt>
      <trkpt lat="44.6755" lon="6.9232">
        <ele>2348</ele>
        <time>2017-09-27T14:55:34Z</time>
      </trkpt>
      <trkpt lat="44.67536" lon="6.92305">
        <ele>2343</ele>
        <time>2017-09-27T14:55:56Z</time>
      </trkpt>
      <trkpt lat="44.67532" lon="6.92308">
        <ele>2342</ele>
        <time>2017-09-27T14:55:59Z</time>
      </trkpt>
      <trkpt lat="44.67531" lon="6.92302">
        <ele>2341</ele>
        <time>2017-09-27T14:56:07Z</time>
      </trkpt>
      <trkpt lat="44.67537" lon="6.9229">
        <ele>2340</ele>
        <time>2017-09-27T14:56:17Z</time>
      </trkpt>
      <trkpt lat="44.67544" lon="6.92265">
        <ele>2341</ele>
        <time>2017-09-27T14:56:27Z</time>
      </trkpt>
      <trkpt lat="44.67538" lon="6.92247">
        <ele>2341</ele>
        <time>2017-09-27T14:56:30Z</time>
      </trkpt>
      <trkpt lat="44.67533" lon="6.9224">
        <ele>2341</ele>
        <time>2017-09-27T14:56:34Z</time>
      </trkpt>
      <trkpt lat="44.67531" lon="6.92232">
        <ele>2341</ele>
        <time>2017-09-27T14:56:50Z</time>
      </trkpt>
      <trkpt lat="44.67525" lon="6.9223">
        <ele>2342</ele>
        <time>2017-09-27T14:56:54Z</time>
      </trkpt>
      <trkpt lat="44.6752" lon="6.92229">
        <ele>2342</ele>
        <time>2017-09-27T14:57:01Z</time>
      </trkpt>
      <trkpt lat="44.67495" lon="6.92228">
        <ele>2342</ele>
        <time>2017-09-27T14:57:13Z</time>
      </trkpt>
      <trkpt lat="44.6749" lon="6.92226">
        <ele>2342</ele>
        <time>2017-09-27T14:57:16Z</time>
      </trkpt>
      <trkpt lat="44.67461" lon="6.92217">
        <ele>2347.7</ele>
        <time>2017-09-27T14:57:49Z</time>
      </trkpt>
      <trkpt lat="44.67383" lon="6.92244">
        <ele>2364.6</ele>
        <time>2017-09-27T14:57:55Z</time>
      </trkpt>
      <trkpt lat="44.67342" lon="6.92241">
        <ele>2374.1</ele>
        <time>2017-09-27T14:58:04Z</time>
      </trkpt>
      <trkpt lat="44.67334" lon="6.92227">
        <ele>2370.3</ele>
        <time>2017-09-27T14:58:14Z</time>
      </trkpt>
      <trkpt lat="44.67278" lon="6.92256">
        <ele>2379.5</ele>
        <time>2017-09-27T14:58:28Z</time>
      </trkpt>
      <trkpt lat="44.67246" lon="6.92256">
        <ele>2378.2</ele>
        <time>2017-09-27T14:58:36Z</time>
      </trkpt>
      <trkpt lat="44.67234" lon="6.92265">
        <ele>2379.8</ele>
        <time>2017-09-27T14:58:44Z</time>
      </trkpt>
      <trkpt lat="44.67223" lon="6.92234">
        <ele>2371.9</ele>
        <time>2017-09-27T14:58:49Z</time>
      </trkpt>
      <trkpt lat="44.67175" lon="6.9222">
        <ele>2371.2</ele>
        <time>2017-09-27T14:59:04Z</time>
      </trkpt>
      <trkpt lat="44.6723" lon="6.92084">
        <ele>2351.6</ele>
        <time>2017-09-27T14:59:08Z</time>
      </trkpt>
      <trkpt lat="44.67426" lon="6.91844">
        <ele>2285.5</ele>
        <time>2017-09-27T14:59:16Z</time>
      </trkpt>
      <trkpt lat="44.6754" lon="6.91698">
        <ele>2256.3</ele>
        <time>2017-09-27T14:59:20Z</time>
      </trkpt>
      <trkpt lat="44.67566" lon="6.91698">
        <ele>2253.8</ele>
        <time>2017-09-27T14:59:24Z</time>
      </trkpt>
      <trkpt lat="44.67615" lon="6.91644">
        <ele>2242.1</ele>
        <time>2017-09-27T14:59:27Z</time>
      </trkpt>
      <trkpt lat="44.67629" lon="6.91563">
        <ele>2234</ele>
        <time>2017-09-27T14:59:39Z</time>
      </trkpt>
      <trkpt lat="44.67664" lon="6.91528">
        <ele>2230.1</ele>
        <time>2017-09-27T14:59:42Z</time>
      </trkpt>
      <trkpt lat="44.6769" lon="6.9142">
        <ele>2219.7</ele>
        <time>2017-09-27T14:59:57Z</time>
      </trkpt>
      <trkpt lat="44.67676" lon="6.91308">
        <ele>2208.9</ele>
        <time>2017-09-27T15:00:01Z</time>
      </trkpt>
      <trkpt lat="44.67661" lon="6.9121">
        <ele>2202.8</ele>
        <time>2017-09-27T15:00:15Z</time>
      </trkpt>
      <trkpt lat="44.67606" lon="6.91167">
        <ele>2200.4</ele>
        <time>2017-09-27T15:00:21Z</time>
      </trkpt>
      <trkpt lat="44.67553" lon="6.91028">
        <ele>2208.1</ele>
        <time>2017-09-27T15:00:27Z</time>
      </trkpt>
      <trkpt lat="44.67557" lon="6.90986">
        <ele>2204.2</ele>
        <time>2017-09-27T15:00:30Z</time>
      </trkpt>
      <trkpt lat="44.67508" lon="6.90792">
        <ele>2198.8</ele>
        <time>2017-09-27T15:00:33Z</time>
      </trkpt>
      <trkpt lat="44.67494" lon="6.90773">
        <ele>2202.7</ele>
        <time>2017-09-27T15:00:36Z</time>
      </trkpt>
      <trkpt lat="44.67495" lon="6.90746">
        <ele>2195</ele>
        <time>2017-09-27T15:00:40Z</time>
      </trkpt>
      <trkpt lat="44.67475" lon="6.90715">
        <ele>2197.1</ele>
        <time>2017-09-27T15:00:59Z</time>
      </trkpt>
      <trkpt lat="44.67484" lon="6.90675">
        <ele>2191.1</ele>
        <time>2017-09-27T15:01:20Z</time>
      </trkpt>
      <trkpt lat="44.67477" lon="6.90664">
        <ele>2186.2</ele>
        <time>2017-09-27T15:01:26Z</time>
      </trkpt>
      <trkpt lat="44.67462" lon="6.90522">
        <ele>2176.9</ele>
        <time>2017-09-27T15:02:02Z</time>
      </trkpt>
      <trkpt lat="44.67475" lon="6.904">
        <ele>2166.2</ele>
        <time>2017-09-27T15:02:05Z</time>
      </trkpt>
      <trkpt lat="44.67465" lon="6.90328">
        <ele>2161.7</ele>
        <time>2017-09-27T15:02:09Z</time>
      </trkpt>
      <trkpt lat="44.67416" lon="6.90214">
        <ele>2168.1</ele>
        <time>2017-09-27T15:02:22Z</time>
      </trkpt>
      <trkpt lat="44.67407" lon="6.90101">
        <ele>2156.9</ele>
        <time>2017-09-27T15:02:27Z</time>
      </trkpt>
      <trkpt lat="44.67386" lon="6.90023">
        <ele>2152.8</ele>
        <time>2017-09-27T15:02:31Z</time>
      </trkpt>
      <trkpt lat="44.67404" lon="6.89844">
        <ele>2137</ele>
        <time>2017-09-27T15:02:37Z</time>
      </trkpt>
      <trkpt lat="44.67463" lon="6.89655">
        <ele>2118.6</ele>
        <time>2017-09-27T15:02:46Z</time>
      </trkpt>
      <trkpt lat="44.67594" lon="6.89459">
        <ele>2111.3</ele>
        <time>2017-09-27T15:02:49Z</time>
      </trkpt>
      <trkpt lat="44.67707" lon="6.89196">
        <ele>2099.2</ele>
        <time>2017-09-27T15:02:52Z</time>
      </trkpt>
      <trkpt lat="44.67756" lon="6.89062">
        <ele>2085.9</ele>
        <time>2017-09-27T15:03:01Z</time>
      </trkpt>
      <trkpt lat="44.67849" lon="6.8877">
        <ele>2063</ele>
        <time>2017-09-27T15:03:07Z</time>
      </trkpt>
      <trkpt lat="44.67876" lon="6.88742">
        <ele>2057.9</ele>
        <time>2017-09-27T15:03:25Z</time>
      </trkpt>
      <trkpt lat="44.68029" lon="6.88436">
        <ele>2028.8</ele>
        <time>2017-09-27T15:03:46Z</time>
      </trkpt>
      <trkpt lat="44.68123" lon="6.88345">
        <ele>2015.2</ele>
        <time>2017-09-27T15:03:52Z</time>
      </trkpt>
      <trkpt lat="44.68306" lon="6.8803">
        <ele>1992.2</ele>
        <time>2017-09-27T15:03:55Z</time>
      </trkpt>
      <trkpt lat="44.68381" lon="6.87986">
        <ele>1984.7</ele>
        <time>2017-09-27T15:03:58Z</time>
      </trkpt>
      <trkpt lat="44.68446" lon="6.87899">
        <ele>1982</ele>
        <time>2017-09-27T15:04:01Z</time>
      </trkpt>
      <trkpt lat="44.68514" lon="6.87847">
        <ele>1975.9</ele>
        <time>2017-09-27T15:04:04Z</time>
      </trkpt>
      <trkpt lat="44.68697" lon="6.87605">
        <ele>1966.2</ele>
        <time>2017-09-27T15:04:12Z</time>
      </trkpt>
      <trkpt lat="44.68771" lon="6.87639">
        <ele>1961.5</ele>
        <time>2017-09-27T15:04:16Z</time>
      </trkpt>
      <trkpt lat="44.68823" lon="6.876">
        <ele>1959.8</ele>
        <time>2017-09-27T15:04:20Z</time>
      </trkpt>
      <trkpt lat="44.68895" lon="6.87588">
        <ele>1963.3</ele>
        <time>2017-09-27T15:04:24Z</time>
      </trkpt>
      <trkpt lat="44.68997" lon="6.8759">
        <ele>1965.9</ele>
        <time>2017-09-27T15:04:32Z</time>
      </trkpt>
      <trkpt lat="44.69026" lon="6.87566">
        <ele>1958.6</ele>
        <time>2017-09-27T15:04:36Z</time>
      </trkpt>
      <trkpt lat="44.69067" lon="6.87575">
        <ele>1965.1</ele>
        <time>2017-09-27T15:04:40Z</time>
      </trkpt>
      <trkpt lat="44.69092" lon="6.8755">
        <ele>1967</ele>
        <time>2017-09-27T15:04:44Z</time>
      </trkpt>
      <trkpt lat="44.69146" lon="6.87542">
        <ele>1969.4</ele>
        <time>2017-09-27T15:04:59Z</time>
      </trkpt>
      <trkpt lat="44.69172" lon="6.87521">
        <ele>1971.8</ele>
        <time>2017-09-27T15:05:03Z</time>
      </trkpt>
      <trkpt lat="44.693" lon="6.87532">
        <ele>1988.1</ele>
        <time>2017-09-27T15:05:07Z</time>
      </trkpt>
      <trkpt lat="44.69338" lon="6.87486">
        <ele>1981.2</ele>
      </trkpt>
      <trkpt lat="44.69437" lon="6.8743">
        <ele>1993.4</ele>
      </trkpt>
      <trkpt lat="44.69487" lon="6.87423">
        <ele>1997.8</ele>
      </trkpt>
      <trkpt lat="44.69527" lon="6.87455">
        <ele>2011.1</ele>
      </trkpt>
      <trkpt lat="44.69584" lon="6.87455">
        <ele>2019.8</ele>
      </trkpt>
      <trkpt lat="44.6962" lon="6.87376">
        <ele>2008.1</ele>
      </trkpt>
      <trkpt lat="44.69642" lon="6.87341">
        <ele>2007.8</ele>
      </trkpt>
      <trkpt lat="44.6987" lon="6.87121">
        <ele>2026</ele>
      </trkpt>
      <trkpt lat="44.69933" lon="6.87001">
        <ele>2032.8</ele>
      </trkpt>
      <trkpt lat="44.69946" lon="6.86919">
        <ele>2028.2</ele>
      </trkpt>
      <trkpt lat="44.70177" lon="6.86613">
        <ele>2052.2</ele>
      </trkpt>
      <trkpt lat="44.7022" lon="6.86511">
        <ele>2050</ele>
      </trkpt>
      <trkpt lat="44.70226" lon="6.86497">
        <ele>2048</ele>
      </trkpt>
      <trkpt lat="44.70235" lon="6.86479">
        <ele>2045</ele>
      </trkpt>
      <trkpt lat="44.70238" lon="6.86473">
        <ele>2045</ele>
      </trkpt>
      <trkpt lat="44.70241" lon="6.86468">
        <ele>2045</ele>
      </trkpt>
      <trkpt lat="44.70244" lon="6.86447">
        <ele>2045</ele>
      </trkpt>
      <trkpt lat="44.70245" lon="6.86433">
        <ele>2045</ele>
      </trkpt>
      <trkpt lat="44.70251" lon="6.86414">
        <ele>2045</ele>
      </trkpt>
      <trkpt lat="44.70252" lon="6.86406">
        <ele>2045</ele>
      </trkpt>
      <trkpt lat="44.70253" lon="6.86399">
        <ele>2045</ele>
      </trkpt>
      <trkpt lat="44.70264" lon="6.86375">
        <ele>2042</ele>
      </trkpt>
      <trkpt lat="44.70273" lon="6.8637">
        <ele>2039</ele>
      </trkpt>
      <trkpt lat="44.70287" lon="6.86357">
        <ele>2037</ele>
      </trkpt>
      <trkpt lat="44.70297" lon="6.86353">
        <ele>2035</ele>
      </trkpt>
      <trkpt lat="44.70301" lon="6.86348">
        <ele>2035</ele>
      </trkpt>
      <trkpt lat="44.70306" lon="6.86344">
        <ele>2035</ele>
      </trkpt>
      <trkpt lat="44.70314" lon="6.86335">
        <ele>2035</ele>
      </trkpt>
      <trkpt lat="44.70322" lon="6.86327">
        <ele>2036</ele>
      </trkpt>
      <trkpt lat="44.70327" lon="6.86325">
        <ele>2036</ele>
      </trkpt>
      <trkpt lat="44.70333" lon="6.86317">
        <ele>2035</ele>
      </trkpt>
      <trkpt lat="44.70335" lon="6.86309">
        <ele>2035</ele>
      </trkpt>
      <trkpt lat="44.70337" lon="6.86303">
        <ele>2035</ele>
      </trkpt>
      <trkpt lat="44.70341" lon="6.86298">
        <ele>2034</ele>
      </trkpt>
      <trkpt lat="44.70351" lon="6.86274">
        <ele>2033</ele>
      </trkpt>
      <trkpt lat="44.7036" lon="6.8625">
        <ele>2032</ele>
      </trkpt>
      <trkpt lat="44.70363" lon="6.86245">
        <ele>2032</ele>
      </trkpt>
      <trkpt lat="44.70378" lon="6.86213">
        <ele>2030</ele>
      </trkpt>
      <trkpt lat="44.70387" lon="6.86192">
        <ele>2029</ele>
      </trkpt>
      <trkpt lat="44.7039" lon="6.86186">
        <ele>2029</ele>
      </trkpt>
      <trkpt lat="44.70398" lon="6.86164">
        <ele>2030</ele>
      </trkpt>
      <trkpt lat="44.70398" lon="6.86157">
        <ele>2030</ele>
      </trkpt>
      <trkpt lat="44.70401" lon="6.86151">
        <ele>2030</ele>
      </trkpt>
      <trkpt lat="44.70405" lon="6.86146">
        <ele>2030</ele>
      </trkpt>
      <trkpt lat="44.70411" lon="6.86143">
        <ele>2031</ele>
      </trkpt>
      <trkpt lat="44.70415" lon="6.86139">
        <ele>2031</ele>
      </trkpt>
      <trkpt lat="44.70419" lon="6.86134">
        <ele>2030</ele>
      </trkpt>
      <trkpt lat="44.70444" lon="6.86086">
        <ele>2029</ele>
      </trkpt>
      <trkpt lat="44.70448" lon="6.86081">
        <ele>2029</ele>
      </trkpt>
      <trkpt lat="44.70452" lon="6.86078">
        <ele>2029</ele>
      </trkpt>
      <trkpt lat="44.70457" lon="6.86071">
        <ele>2028</ele>
      </trkpt>
      <trkpt lat="44.70459" lon="6.86066">
        <ele>2028</ele>
      </trkpt>
      <trkpt lat="44.70461" lon="6.8606">
        <ele>2027</ele>
      </trkpt>
      <trkpt lat="44.70464" lon="6.86054">
        <ele>2027</ele>
      </trkpt>
      <trkpt lat="44.70485" lon="6.86024">
        <ele>2028</ele>
      </trkpt>
      <trkpt lat="44.70514" lon="6.85988">
        <ele>2026</ele>
      </trkpt>
      <trkpt lat="44.70541" lon="6.85958">
        <ele>2023</ele>
      </trkpt>
      <trkpt lat="44.70546" lon="6.85953">
        <ele>2023</ele>
      </trkpt>
      <trkpt lat="44.70549" lon="6.85948">
        <ele>2023</ele>
      </trkpt>
      <trkpt lat="44.70561" lon="6.85936">
        <ele>2022</ele>
      </trkpt>
      <trkpt lat="44.70563" lon="6.85929">
        <ele>2020</ele>
      </trkpt>
      <trkpt lat="44.7058" lon="6.85907">
        <ele>2016</ele>
      </trkpt>
      <trkpt lat="44.70594" lon="6.85896">
        <ele>2016</ele>
      </trkpt>
      <trkpt lat="44.70609" lon="6.85889">
        <ele>2016</ele>
      </trkpt>
      <trkpt lat="44.70633" lon="6.85883">
        <ele>2015</ele>
      </trkpt>
      <trkpt lat="44.70638" lon="6.85881">
        <ele>2015</ele>
      </trkpt>
      <trkpt lat="44.70642" lon="6.85882">
        <ele>2014</ele>
      </trkpt>
      <trkpt lat="44.70659" lon="6.85879">
        <ele>2010</ele>
      </trkpt>
      <trkpt lat="44.70676" lon="6.85867">
        <ele>2009</ele>
      </trkpt>
      <trkpt lat="44.70679" lon="6.8586">
        <ele>2008</ele>
      </trkpt>
      <trkpt lat="44.70682" lon="6.85856">
        <ele>2008</ele>
      </trkpt>
      <trkpt lat="44.70691" lon="6.8585">
        <ele>2008</ele>
      </trkpt>
      <trkpt lat="44.70705" lon="6.85843">
        <ele>2008</ele>
      </trkpt>
      <trkpt lat="44.70709" lon="6.85843">
        <ele>2008</ele>
      </trkpt>
      <trkpt lat="44.7072" lon="6.85839">
        <ele>2006</ele>
      </trkpt>
      <trkpt lat="44.70733" lon="6.85826">
        <ele>2002</ele>
      </trkpt>
      <trkpt lat="44.70736" lon="6.85821">
        <ele>2002</ele>
      </trkpt>
      <trkpt lat="44.70786" lon="6.85787">
        <ele>2001</ele>
      </trkpt>
      <trkpt lat="44.70795" lon="6.8578">
        <ele>2001</ele>
      </trkpt>
      <trkpt lat="44.70805" lon="6.85776">
        <ele>1999</ele>
      </trkpt>
      <trkpt lat="44.70806" lon="6.85763">
        <ele>1999</ele>
      </trkpt>
      <trkpt lat="44.70811" lon="6.85759">
        <ele>1999</ele>
      </trkpt>
      <trkpt lat="44.70824" lon="6.85737">
        <ele>2002</ele>
      </trkpt>
      <trkpt lat="44.70827" lon="6.85732">
        <ele>2002</ele>
      </trkpt>
      <trkpt lat="44.70831" lon="6.85728">
        <ele>2002</ele>
      </trkpt>
      <trkpt lat="44.70838" lon="6.85717">
        <ele>2001</ele>
      </trkpt>
      <trkpt lat="44.70842" lon="6.85702">
        <ele>1999</ele>
      </trkpt>
      <trkpt lat="44.70851" lon="6.85687">
        <ele>1996</ele>
      </trkpt>
      <trkpt lat="44.70862" lon="6.85673">
        <ele>1992</ele>
      </trkpt>
      <trkpt lat="44.70892" lon="6.85628">
        <ele>1985</ele>
      </trkpt>
      <trkpt lat="44.70905" lon="6.8558">
        <ele>1977</ele>
      </trkpt>
      <trkpt lat="44.70931" lon="6.85544">
        <ele>1973</ele>
      </trkpt>
      <trkpt lat="44.70959" lon="6.85506">
        <ele>1967</ele>
      </trkpt>
      <trkpt lat="44.70963" lon="6.85503">
        <ele>1967</ele>
      </trkpt>
      <trkpt lat="44.70967" lon="6.855">
        <ele>1966</ele>
      </trkpt>
      <trkpt lat="44.70991" lon="6.85462">
        <ele>1961</ele>
      </trkpt>
      <trkpt lat="44.71012" lon="6.85444">
        <ele>1958</ele>
      </trkpt>
      <trkpt lat="44.71038" lon="6.85429">
        <ele>1957</ele>
      </trkpt>
      <trkpt lat="44.71042" lon="6.85426">
        <ele>1955</ele>
      </trkpt>
      <trkpt lat="44.71046" lon="6.85421">
        <ele>1954</ele>
      </trkpt>
      <trkpt lat="44.7108" lon="6.85391">
        <ele>1944</ele>
      </trkpt>
      <trkpt lat="44.71097" lon="6.85372">
        <ele>1941</ele>
      </trkpt>
      <trkpt lat="44.711" lon="6.85366">
        <ele>1941</ele>
      </trkpt>
      <trkpt lat="44.71104" lon="6.85362">
        <ele>1941</ele>
      </trkpt>
      <trkpt lat="44.71114" lon="6.85355">
        <ele>1939</ele>
      </trkpt>
      <trkpt lat="44.71117" lon="6.85349">
        <ele>1938</ele>
      </trkpt>
      <trkpt lat="44.71122" lon="6.85346">
        <ele>1937</ele>
      </trkpt>
      <trkpt lat="44.71124" lon="6.8534">
        <ele>1935</ele>
      </trkpt>
      <trkpt lat="44.71132" lon="6.8533">
        <ele>1932</ele>
      </trkpt>
      <trkpt lat="44.71157" lon="6.85308">
        <ele>1927</ele>
      </trkpt>
      <trkpt lat="44.71167" lon="6.85303">
        <ele>1925</ele>
      </trkpt>
      <trkpt lat="44.71175" lon="6.85293">
        <ele>1924</ele>
      </trkpt>
      <trkpt lat="44.71189" lon="6.85285">
        <ele>1922</ele>
      </trkpt>
      <trkpt lat="44.71205" lon="6.85271">
        <ele>1920</ele>
      </trkpt>
      <trkpt lat="44.71211" lon="6.85268">
        <ele>1919</ele>
      </trkpt>
      <trkpt lat="44.71215" lon="6.85266">
        <ele>1919</ele>
      </trkpt>
      <trkpt lat="44.71238" lon="6.85259">
        <ele>1916</ele>
      </trkpt>
      <trkpt lat="44.71254" lon="6.8526">
        <ele>1913</ele>
      </trkpt>
      <trkpt lat="44.71276" lon="6.85266">
        <ele>1912</ele>
      </trkpt>
      <trkpt lat="44.71281" lon="6.85264">
        <ele>1911</ele>
      </trkpt>
      <trkpt lat="44.71286" lon="6.85266">
        <ele>1910</ele>
      </trkpt>
      <trkpt lat="44.71323" lon="6.85267">
        <ele>1902</ele>
      </trkpt>
      <trkpt lat="44.71329" lon="6.85263">
        <ele>1901</ele>
      </trkpt>
      <trkpt lat="44.71334" lon="6.85262">
        <ele>1900</ele>
      </trkpt>
      <trkpt lat="44.71361" lon="6.8525">
        <ele>1894</ele>
      </trkpt>
      <trkpt lat="44.71384" lon="6.85246">
        <ele>1888</ele>
      </trkpt>
      <trkpt lat="44.71403" lon="6.85253">
        <ele>1885</ele>
      </trkpt>
      <trkpt lat="44.7141" lon="6.85246">
        <ele>1883</ele>
      </trkpt>
      <trkpt lat="44.71413" lon="6.8524">
        <ele>1880</ele>
      </trkpt>
      <trkpt lat="44.7144" lon="6.85222">
        <ele>1868</ele>
      </trkpt>
      <trkpt lat="44.71445" lon="6.85219">
        <ele>1866</ele>
      </trkpt>
      <trkpt lat="44.7145" lon="6.85219">
        <ele>1864</ele>
      </trkpt>
      <trkpt lat="44.71472" lon="6.8521">
        <ele>1852</ele>
      </trkpt>
      <trkpt lat="44.71503" lon="6.85201">
        <ele>1845</ele>
      </trkpt>
      <trkpt lat="44.71501" lon="6.85195">
        <ele>1838</ele>
      </trkpt>
      <trkpt lat="44.71492" lon="6.8519">
        <ele>1838</ele>
      </trkpt>
      <trkpt lat="44.71487" lon="6.85189">
        <ele>1837</ele>
      </trkpt>
      <trkpt lat="44.71482" lon="6.85186">
        <ele>1837</ele>
      </trkpt>
      <trkpt lat="44.7148" lon="6.85179">
        <ele>1837</ele>
      </trkpt>
      <trkpt lat="44.71475" lon="6.85175">
        <ele>1836</ele>
      </trkpt>
      <trkpt lat="44.7146" lon="6.85175">
        <ele>1836</ele>
      </trkpt>
      <trkpt lat="44.71435" lon="6.85168">
        <ele>1835</ele>
      </trkpt>
      <trkpt lat="44.71421" lon="6.85165">
        <ele>1836</ele>
      </trkpt>
      <trkpt lat="44.71415" lon="6.85164">
        <ele>1836</ele>
      </trkpt>
      <trkpt lat="44.71409" lon="6.85164">
        <ele>1835</ele>
      </trkpt>
      <trkpt lat="44.71405" lon="6.85163">
        <ele>1835</ele>
      </trkpt>
      <trkpt lat="44.714" lon="6.85158">
        <ele>1834</ele>
      </trkpt>
      <trkpt lat="44.71394" lon="6.85146">
        <ele>1834</ele>
      </trkpt>
      <trkpt lat="44.714" lon="6.85133">
        <ele>1831</ele>
      </trkpt>
      <trkpt lat="44.714" lon="6.85118">
        <ele>1829</ele>
      </trkpt>
      <trkpt lat="44.71394" lon="6.85105">
        <ele>1829</ele>
      </trkpt>
      <trkpt lat="44.71388" lon="6.85094">
        <ele>1828</ele>
      </trkpt>
      <trkpt lat="44.71383" lon="6.85088">
        <ele>1827</ele>
      </trkpt>
      <trkpt lat="44.71379" lon="6.85087">
        <ele>1827</ele>
      </trkpt>
      <trkpt lat="44.71338" lon="6.85089">
        <ele>1819</ele>
      </trkpt>
      <trkpt lat="44.71308" lon="6.85094">
        <ele>1814</ele>
      </trkpt>
      <trkpt lat="44.71288" lon="6.85095">
        <ele>1814</ele>
      </trkpt>
      <trkpt lat="44.71279" lon="6.8509">
        <ele>1812</ele>
      </trkpt>
      <trkpt lat="44.7127" lon="6.85082">
        <ele>1812</ele>
      </trkpt>
      <trkpt lat="44.71266" lon="6.85078">
        <ele>1812</ele>
      </trkpt>
      <trkpt lat="44.7125" lon="6.8506">
        <ele>1809</ele>
      </trkpt>
      <trkpt lat="44.7124" lon="6.85052">
        <ele>1809</ele>
      </trkpt>
      <trkpt lat="44.71238" lon="6.85044">
        <ele>1808</ele>
      </trkpt>
      <trkpt lat="44.71234" lon="6.85038">
        <ele>1808</ele>
      </trkpt>
      <trkpt lat="44.71232" lon="6.8503">
        <ele>1807</ele>
      </trkpt>
      <trkpt lat="44.71234" lon="6.85023">
        <ele>1807</ele>
      </trkpt>
      <trkpt lat="44.71238" lon="6.85019">
        <ele>1806</ele>
      </trkpt>
      <trkpt lat="44.71248" lon="6.85017">
        <ele>1803</ele>
      </trkpt>
      <trkpt lat="44.71253" lon="6.85017">
        <ele>1802</ele>
      </trkpt>
      <trkpt lat="44.71259" lon="6.85017">
        <ele>1802</ele>
      </trkpt>
      <trkpt lat="44.71276" lon="6.85012">
        <ele>1799</ele>
      </trkpt>
      <trkpt lat="44.7128" lon="6.8501">
        <ele>1798</ele>
      </trkpt>
      <trkpt lat="44.71291" lon="6.85002">
        <ele>1796</ele>
      </trkpt>
      <trkpt lat="44.7131" lon="6.84999">
        <ele>1792</ele>
      </trkpt>
      <trkpt lat="44.71318" lon="6.84994">
        <ele>1790</ele>
      </trkpt>
      <trkpt lat="44.71319" lon="6.84988">
        <ele>1790</ele>
      </trkpt>
      <trkpt lat="44.71324" lon="6.84987">
        <ele>1790</ele>
      </trkpt>
      <trkpt lat="44.71329" lon="6.84984">
        <ele>1789</ele>
      </trkpt>
      <trkpt lat="44.71333" lon="6.8498">
        <ele>1789</ele>
      </trkpt>
      <trkpt lat="44.71356" lon="6.8497">
        <ele>1785</ele>
      </trkpt>
      <trkpt lat="44.71372" lon="6.8497">
        <ele>1782</ele>
      </trkpt>
      <trkpt lat="44.71377" lon="6.84969">
        <ele>1781</ele>
      </trkpt>
      <trkpt lat="44.71386" lon="6.84965">
        <ele>1781</ele>
      </trkpt>
      <trkpt lat="44.71397" lon="6.84965">
        <ele>1780</ele>
      </trkpt>
      <trkpt lat="44.71413" lon="6.84966">
        <ele>1779</ele>
      </trkpt>
      <trkpt lat="44.71424" lon="6.84964">
        <ele>1778</ele>
      </trkpt>
      <trkpt lat="44.71435" lon="6.84962">
        <ele>1778</ele>
      </trkpt>
      <trkpt lat="44.7145" lon="6.84967">
        <ele>1778</ele>
      </trkpt>
      <trkpt lat="44.71455" lon="6.84968">
        <ele>1777</ele>
      </trkpt>
      <trkpt lat="44.7146" lon="6.84967">
        <ele>1777</ele>
      </trkpt>
      <trkpt lat="44.71475" lon="6.8496">
        <ele>1775</ele>
      </trkpt>
      <trkpt lat="44.71513" lon="6.84959">
        <ele>1771</ele>
      </trkpt>
      <trkpt lat="44.71533" lon="6.8495">
        <ele>1771</ele>
      </trkpt>
      <trkpt lat="44.71538" lon="6.84951">
        <ele>1771</ele>
      </trkpt>
      <trkpt lat="44.71543" lon="6.84951">
        <ele>1771</ele>
      </trkpt>
      <trkpt lat="44.71562" lon="6.84942">
        <ele>1772</ele>
      </trkpt>
      <trkpt lat="44.71591" lon="6.84928">
        <ele>1769</ele>
      </trkpt>
      <trkpt lat="44.71595" lon="6.84926">
        <ele>1768</ele>
      </trkpt>
      <trkpt lat="44.71606" lon="6.84922">
        <ele>1767</ele>
      </trkpt>
      <trkpt lat="44.71622" lon="6.84917">
        <ele>1769</ele>
      </trkpt>
      <trkpt lat="44.71636" lon="6.84911">
        <ele>1768</ele>
      </trkpt>
      <trkpt lat="44.7164" lon="6.84908">
        <ele>1768</ele>
      </trkpt>
      <trkpt lat="44.71645" lon="6.84905">
        <ele>1768</ele>
      </trkpt>
      <trkpt lat="44.71665" lon="6.84894">
        <ele>1770</ele>
      </trkpt>
      <trkpt lat="44.7167" lon="6.84891">
        <ele>1770</ele>
      </trkpt>
      <trkpt lat="44.7168" lon="6.84886">
        <ele>1771</ele>
      </trkpt>
      <trkpt lat="44.71697" lon="6.84881">
        <ele>1771</ele>
      </trkpt>
      <trkpt lat="44.71701" lon="6.84879">
        <ele>1771</ele>
      </trkpt>
      <trkpt lat="44.71723" lon="6.8488">
        <ele>1769</ele>
      </trkpt>
      <trkpt lat="44.71734" lon="6.84882">
        <ele>1768</ele>
      </trkpt>
      <trkpt lat="44.71748" lon="6.84885">
        <ele>1768</ele>
      </trkpt>
      <trkpt lat="44.71766" lon="6.84885">
        <ele>1767</ele>
      </trkpt>
      <trkpt lat="44.71787" lon="6.84883">
        <ele>1767</ele>
      </trkpt>
      <trkpt lat="44.71798" lon="6.84884">
        <ele>1767</ele>
      </trkpt>
      <trkpt lat="44.71807" lon="6.84882">
        <ele>1768</ele>
      </trkpt>
      <trkpt lat="44.71813" lon="6.84884">
        <ele>1768</ele>
      </trkpt>
      <trkpt lat="44.71813" lon="6.8488">
        <ele>1769</ele>
      </trkpt>
      <trkpt lat="44.71808" lon="6.84879">
        <ele>1770</ele>
      </trkpt>
      <trkpt lat="44.71798" lon="6.84881">
        <ele>1770</ele>
      </trkpt>
      <trkpt lat="44.71792" lon="6.84879">
        <ele>1770</ele>
      </trkpt>
      <trkpt lat="44.71792" lon="6.84872">
        <ele>1769</ele>
      </trkpt>
      <trkpt lat="44.71795" lon="6.84867">
        <ele>1768</ele>
      </trkpt>
      <trkpt lat="44.71813" lon="6.84858">
        <ele>1765</ele>
      </trkpt>
      <trkpt lat="44.71818" lon="6.84857">
        <ele>1765</ele>
      </trkpt>
      <trkpt lat="44.71838" lon="6.8486">
        <ele>1765</ele>
      </trkpt>
      <trkpt lat="44.71844" lon="6.84862">
        <ele>1765</ele>
      </trkpt>
      <trkpt lat="44.71864" lon="6.84864">
        <ele>1763</ele>
      </trkpt>
      <trkpt lat="44.71874" lon="6.84866">
        <ele>1762</ele>
      </trkpt>
      <trkpt lat="44.71884" lon="6.84866">
        <ele>1762</ele>
      </trkpt>
      <trkpt lat="44.71888" lon="6.84866">
        <ele>1762</ele>
      </trkpt>
      <trkpt lat="44.71893" lon="6.84864">
        <ele>1762</ele>
      </trkpt>
      <trkpt lat="44.71898" lon="6.84863">
        <ele>1762</ele>
      </trkpt>
      <trkpt lat="44.71903" lon="6.8486">
        <ele>1761</ele>
      </trkpt>
      <trkpt lat="44.7193" lon="6.84847">
        <ele>1759</ele>
      </trkpt>
      <trkpt lat="44.71965" lon="6.84837">
        <ele>1755</ele>
      </trkpt>
      <trkpt lat="44.71975" lon="6.84831">
        <ele>1754</ele>
      </trkpt>
      <trkpt lat="44.71995" lon="6.8483">
        <ele>1751</ele>
      </trkpt>
      <trkpt lat="44.72" lon="6.84829">
        <ele>1751</ele>
      </trkpt>
      <trkpt lat="44.72005" lon="6.84829">
        <ele>1750</ele>
      </trkpt>
      <trkpt lat="44.72022" lon="6.84828">
        <ele>1748</ele>
      </trkpt>
      <trkpt lat="44.72027" lon="6.84827">
        <ele>1748</ele>
      </trkpt>
      <trkpt lat="44.72031" lon="6.84823">
        <ele>1748</ele>
      </trkpt>
      <trkpt lat="44.72036" lon="6.84812">
        <ele>1748</ele>
      </trkpt>
      <trkpt lat="44.72042" lon="6.84793">
        <ele>1747</ele>
      </trkpt>
      <trkpt lat="44.72045" lon="6.84788">
        <ele>1747</ele>
      </trkpt>
      <trkpt lat="44.72049" lon="6.84784">
        <ele>1746</ele>
      </trkpt>
      <trkpt lat="44.72063" lon="6.84778">
        <ele>1745</ele>
      </trkpt>
      <trkpt lat="44.72073" lon="6.84776">
        <ele>1745</ele>
      </trkpt>
      <trkpt lat="44.72101" lon="6.84771">
        <ele>1744</ele>
      </trkpt>
      <trkpt lat="44.72122" lon="6.8477">
        <ele>1741</ele>
      </trkpt>
      <trkpt lat="44.72131" lon="6.84767">
        <ele>1741</ele>
      </trkpt>
      <trkpt lat="44.72136" lon="6.84765">
        <ele>1741</ele>
      </trkpt>
      <trkpt lat="44.7214" lon="6.84762">
        <ele>1741</ele>
      </trkpt>
      <trkpt lat="44.72144" lon="6.84758">
        <ele>1741</ele>
      </trkpt>
      <trkpt lat="44.72146" lon="6.84752">
        <ele>1740</ele>
      </trkpt>
      <trkpt lat="44.72149" lon="6.84736">
        <ele>1739</ele>
      </trkpt>
      <trkpt lat="44.72153" lon="6.8473">
        <ele>1738</ele>
      </trkpt>
      <trkpt lat="44.72158" lon="6.84728">
        <ele>1737</ele>
      </trkpt>
      <trkpt lat="44.72163" lon="6.84727">
        <ele>1736</ele>
      </trkpt>
      <trkpt lat="44.72174" lon="6.84726">
        <ele>1737</ele>
      </trkpt>
      <trkpt lat="44.7218" lon="6.84725">
        <ele>1737</ele>
      </trkpt>
      <trkpt lat="44.72185" lon="6.84722">
        <ele>1736</ele>
      </trkpt>
      <trkpt lat="44.7219" lon="6.84718">
        <ele>1735</ele>
      </trkpt>
      <trkpt lat="44.7221" lon="6.84703">
        <ele>1736</ele>
      </trkpt>
      <trkpt lat="44.72215" lon="6.84701">
        <ele>1736</ele>
      </trkpt>
      <trkpt lat="44.7222" lon="6.84701">
        <ele>1736</ele>
      </trkpt>
    </trkseg>
  </trk>
</gpx>